AA3413 / N230NN 7700 Squawk Report (4th of May, 2020)

Aircraft E75L Reg No. N230NN Age N/A
Model Emb-175 Jet engines 2 First flight N/A
Registered 08-04-16 Rollout N/A Delivered 13-04-16
Construction No. 17000550 Line No. N/A Series 200LR
ADSHEX A209B9 Airline name Envoy Air Owner Republic Airline
Airfield based Indianapolis-International~IN~N First tracked N/A

Flight history for N230NN

Route Flight No Date Playback
Dallas Fort Worth (DFW) - Memphis Intl (MEM) AA3403 2020-07-10 20:34:00
Dallas Fort Worth (DFW) - General Leobardo C Ruiz Intl (ZCL) - Dallas Fort Worth (DFW) AA3371 2020-07-10 19:04:00
Missoula Intl (MSO) - Dallas Fort Worth (DFW) AA3301 2020-07-10 01:47:00
Cincinnati Northern Kentucky Intl (CVG) - Dallas Fort Worth (DFW) AA3479 2020-07-09 16:27:00
Dallas Fort Worth (DFW) - Cincinnati Northern Kentucky Intl (CVG) AA3378 2020-07-09 01:58:00
Lovell Field (CHA) - Dallas Fort Worth (DFW) AA4006 2020-07-08 22:44:00
Dallas Fort Worth (DFW) - Lovell Field (CHA) AA3714 2020-07-08 20:49:00
Albuquerque International Sunport (ABQ) - Dallas Fort Worth (DFW) AA3356 2020-07-05 04:09:00
Dallas Fort Worth (DFW) - Albuquerque International Sunport (ABQ) AA3357 2020-07-04 18:48:00
Baton Rouge Metropolitan (BTR) - Dallas Fort Worth (DFW) AA3301 2020-07-04 14:24:00
Dallas Fort Worth (DFW) - Baton Rouge Metropolitan (BTR) AA3305 2020-07-04 01:09:00
Dallas Fort Worth (DFW) - Blue Grass (LEX) - Dallas Fort Worth (DFW) AA3777 2020-07-03 23:07:00
Will Rogers World (OKC) - Dallas Fort Worth (DFW) AA3947 2020-07-03 15:56:00
Dallas Fort Worth (DFW) - Will Rogers World (OKC) AA3751 2020-07-03 00:04:00
Adams Fld (LIT) - Dallas Fort Worth (DFW) AA3377 2020-07-02 19:59:00
Dallas Fort Worth (DFW) - Adams Fld (LIT) AA3413 2020-07-02 00:10:00
Dallas Fort Worth (DFW) - Huntsville International Airport-Carl T Jones Field (HSV) - Dallas Fort Worth (DFW) AA3450 2020-07-01 22:29:00
Kansas City Intl (MCI) - Dallas Fort Worth (DFW) AA3521 2020-07-01 16:11:00
Dallas Fort Worth (DFW) - Kansas City Intl (MCI) AA3384 2020-07-01 01:11:00
Key West Intl (EYW) - Dallas Fort Worth (DFW) AA3302 2020-06-30 21:52:00
Time Lat Lon Altitude Heading Speed Vertical Rate
2020-05-05 02:08:47 GMT 32.903622 -97.046432 0 78 8 0
2020-05-05 02:08:44 GMT 32.903671 -97.046387 0 78 8 0
2020-05-05 02:08:41 GMT 32.903351 -97.046631 0 78 6 0
2020-05-05 02:08:38 GMT 32.903389 -97.046509 0 78 6 0
2020-05-05 02:08:35 GMT 32.903358 -97.046608 0 78 6 0
2020-05-05 02:08:32 GMT 32.903332 -97.046707 0 83 9 0
2020-05-05 02:08:29 GMT 32.903320 -97.046791 0 89 11 0
2020-05-05 02:08:26 GMT 32.903252 -97.046951 0 95 12 0
2020-05-05 02:08:23 GMT 32.903301 -97.047119 0 79 13 0
2020-05-05 02:08:20 GMT 32.903278 -97.047310 0 62 13 0
2020-05-05 02:08:17 GMT 32.903172 -97.047523 0 27 9 0
2020-05-05 02:08:14 GMT 32.903049 -97.047623 0 9 11 0
2020-05-05 02:08:11 GMT 32.902931 -97.047653 0 1 18 0
2020-05-05 02:08:08 GMT 32.902679 -97.047661 0 359 20 0
2020-05-05 02:08:05 GMT 32.902420 -97.047653 0 0 21 0
2020-05-05 02:08:02 GMT 32.901878 -97.047623 0 355 20 0
2020-05-05 02:07:59 GMT 32.901878 -97.047623 0 2 23 0
2020-05-05 02:07:56 GMT 32.901562 -97.047661 0 1 20 0
2020-05-05 02:07:53 GMT 32.900990 -97.047653 0 353 18 0
2020-05-05 02:07:50 GMT 32.900990 -97.047653 0 357 19 0
2020-05-05 02:07:47 GMT 32.900749 -97.047630 0 1 21 0
2020-05-05 02:07:44 GMT 32.900452 -97.047630 0 0 20 0
2020-05-05 02:07:41 GMT 32.900169 -97.047653 0 0 21 0
2020-05-05 02:07:38 GMT 32.899872 -97.047661 0 358 20 0
2020-05-05 02:07:35 GMT 32.899559 -97.047653 0 4 18 0
2020-05-05 02:07:32 GMT 32.899300 -97.047668 0 358 20 0
2020-05-05 02:07:29 GMT 32.899021 -97.047691 0 355 18 0
2020-05-05 02:07:26 GMT 32.898769 -97.047661 0 359 21 0
2020-05-05 02:07:23 GMT 32.898479 -97.047691 0 354 20 0
2020-05-05 02:07:20 GMT 32.898178 -97.047630 0 354 19 0
2020-05-05 02:07:17 GMT 32.897919 -97.047653 0 359 20 0
2020-05-05 02:07:14 GMT 32.897652 -97.047607 0 355 20 0
2020-05-05 02:07:11 GMT 32.897320 -97.047638 0 8 24 0
2020-05-05 02:07:08 GMT 32.897060 -97.047699 0 1 24 0
2020-05-05 02:07:05 GMT 32.896729 -97.047661 0 8 27 0
2020-05-05 02:07:02 GMT 32.896309 -97.047752 0 351 19 0
2020-05-05 02:06:59 GMT 32.896061 -97.047737 0 353 23 0
2020-05-05 02:06:56 GMT 32.895790 -97.047699 0 0 22 0
2020-05-05 02:06:53 GMT 32.895432 -97.047699 0 1 23 0
2020-05-05 02:06:50 GMT 32.895111 -97.047699 0 0 26 0
2020-05-05 02:06:47 GMT 32.894749 -97.047707 0 359 21 0
2020-05-05 02:06:44 GMT 32.894459 -97.047699 0 0 22 0
2020-05-05 02:06:41 GMT 32.894150 -97.047707 0 2 22 0
2020-05-05 02:06:38 GMT 32.893822 -97.047707 0 357 23 0
2020-05-05 02:06:35 GMT 32.893509 -97.047684 0 2 21 0
2020-05-05 02:06:32 GMT 32.893230 -97.047699 0 2 22 0
2020-05-05 02:06:29 GMT 32.892899 -97.047707 0 357 24 0
2020-05-05 02:06:26 GMT 32.892570 -97.047684 0 4 22 0
2020-05-05 02:06:23 GMT 32.892239 -97.047699 0 4 23 0
2020-05-05 02:06:20 GMT 32.891869 -97.047752 0 359 19 0
2020-05-05 02:06:17 GMT 32.891628 -97.047707 0 1 20 0
2020-05-05 02:06:14 GMT 32.891338 -97.047722 0 359 22 0
2020-05-05 02:06:11 GMT 32.891022 -97.047729 0 355 19 0
2020-05-05 02:06:08 GMT 32.890770 -97.047691 0 358 22 0
2020-05-05 02:06:05 GMT 32.890469 -97.047699 0 359 22 0
2020-05-05 02:06:02 GMT 32.890160 -97.047699 0 0 22 0
2020-05-05 02:05:59 GMT 32.889851 -97.047684 0 7 20 0
2020-05-05 02:05:56 GMT 32.889580 -97.047699 0 7 21 0
2020-05-05 02:05:53 GMT 32.889259 -97.047752 0 355 21 0
2020-05-05 02:05:50 GMT 32.888988 -97.047699 0 355 23 0
2020-05-05 02:05:47 GMT 32.888660 -97.047729 0 358 20 0
2020-05-05 02:05:44 GMT 32.888401 -97.047691 0 1 21 0
2020-05-05 02:05:41 GMT 32.888081 -97.047729 0 4 22 0
2020-05-05 02:05:38 GMT 32.887772 -97.047729 0 358 20 0
2020-05-05 02:05:35 GMT 32.887520 -97.047722 0 356 20 0
2020-05-05 02:05:32 GMT 32.887241 -97.047707 0 0 18 0
2020-05-05 02:05:29 GMT 32.887001 -97.047707 0 7 19 0
2020-05-05 02:05:26 GMT 32.886768 -97.047722 0 6 18 0
2020-05-05 02:05:23 GMT 32.886539 -97.047737 0 338 18 0
2020-05-05 02:05:20 GMT 32.886299 -97.047653 0 308 15 0
2020-05-05 02:05:17 GMT 32.886139 -97.047493 0 290 16 0
2020-05-05 02:05:14 GMT 32.886028 -97.047272 0 262 19 0
2020-05-05 02:05:11 GMT 32.886089 -97.046989 0 273 17 0
2020-05-05 02:05:08 GMT 32.886070 -97.046707 0 270 19 0
2020-05-05 02:05:05 GMT 32.886070 -97.046387 0 272 18 0
2020-05-05 02:05:02 GMT 32.886028 -97.046112 0 271 20 0
2020-05-05 02:04:59 GMT 32.886070 -97.045761 0 267 20 -64
2020-05-05 02:04:56 GMT 32.886021 -97.045448 0 265 19 -64
2020-05-05 02:04:53 GMT 32.886040 -97.045151 0 269 18 -64
2020-05-05 02:04:50 GMT 32.886040 -97.044594 0 268 18 -64
2020-05-05 02:04:47 GMT 32.886040 -97.044594 0 268 24 -64
2020-05-05 02:04:44 GMT 32.886028 -97.044189 0 267 21 -64
2020-05-05 02:04:41 GMT 32.886028 -97.043533 0 270 21 -64
2020-05-05 02:04:38 GMT 32.886028 -97.043533 0 267 21 -64
2020-05-05 02:04:35 GMT 32.886051 -97.043159 0 272 22 -64
2020-05-05 02:04:32 GMT 32.886028 -97.042793 0 267 23 -64
2020-05-05 02:04:29 GMT 32.886059 -97.042442 0 273 21 -64
2020-05-05 02:04:26 GMT 32.886051 -97.042099 0 271 21 -64
2020-05-05 02:04:23 GMT 32.886028 -97.041763 0 267 20 0
2020-05-05 02:04:20 GMT 32.886040 -97.041428 0 275 21 0
2020-05-05 02:04:17 GMT 32.886028 -97.041077 0 268 21 0
2020-05-05 02:04:14 GMT 32.886021 -97.040741 0 267 21 0
2020-05-05 02:04:11 GMT 32.886040 -97.040367 0 272 21 0
2020-05-05 02:04:08 GMT 32.886051 -97.040039 0 268 19 0
2020-05-05 02:04:05 GMT 32.886028 -97.039658 0 271 20 0
2020-05-05 02:04:02 GMT 32.886021 -97.039337 0 269 21 0
2020-05-05 02:03:59 GMT 32.886021 -97.039001 0 267 20 0
2020-05-05 02:03:56 GMT 32.886051 -97.038643 0 272 23 0
2020-05-05 02:03:53 GMT 32.886040 -97.038307 0 270 25 0
2020-05-05 02:03:50 GMT 32.886051 -97.037537 0 268 22 0
2020-05-05 02:03:47 GMT 32.886051 -97.037537 0 274 19 0
2020-05-05 02:03:44 GMT 32.885990 -97.037231 0 272 21 0
2020-05-05 02:03:41 GMT 32.886028 -97.036552 0 268 23 0
2020-05-05 02:03:38 GMT 32.886028 -97.036552 0 270 23 0
2020-05-05 02:03:35 GMT 32.886028 -97.036133 0 270 20 0
2020-05-05 02:03:32 GMT 32.886009 -97.035789 0 273 22 0
2020-05-05 02:03:29 GMT 32.886009 -97.035431 0 269 14 0
2020-05-05 02:03:26 GMT 32.886009 -97.035172 0 268 17 0
2020-05-05 02:03:23 GMT 32.886021 -97.034889 0 270 17 0
2020-05-05 02:03:20 GMT 32.886021 -97.034569 0 269 12 64
2020-05-05 02:03:17 GMT 32.886028 -97.034378 0 272 15 64
2020-05-05 02:03:14 GMT 32.886002 -97.034142 0 264 19 64
2020-05-05 02:03:11 GMT 32.886051 -97.033821 0 278 16 64
2020-05-05 02:03:08 GMT 32.886021 -97.033569 0 294 15 64
2020-05-05 02:03:05 GMT 32.885929 -97.033348 0 343 13 0
2020-05-05 02:03:02 GMT 32.885738 -97.033272 0 348 13 0
2020-05-05 02:02:59 GMT 32.885578 -97.033211 0 354 12 0
2020-05-05 02:02:56 GMT 32.885399 -97.033234 0 0 15 0
2020-05-05 02:02:53 GMT 32.885201 -97.033249 0 1 16 0
2020-05-05 02:02:50 GMT 32.884979 -97.033241 0 6 15 0
2020-05-05 02:02:47 GMT 32.884781 -97.033287 0 8 14 0
2020-05-05 02:02:44 GMT 32.884579 -97.033340 0 6 15 0
2020-05-05 02:02:41 GMT 32.884361 -97.033348 0 2 17 0
2020-05-05 02:02:38 GMT 32.884121 -97.033371 0 1 18 0
2020-05-05 02:02:35 GMT 32.883900 -97.033371 0 2 17 0
2020-05-05 02:02:32 GMT 32.883671 -97.033386 0 359 18 0
2020-05-05 02:02:29 GMT 32.883411 -97.033363 0 359 17 0
2020-05-05 02:02:26 GMT 32.883202 -97.033371 0 341 16 0
2020-05-05 02:02:23 GMT 32.882950 -97.033279 0 337 17 0
2020-05-05 02:02:20 GMT 32.882729 -97.033180 0 335 18 0
2020-05-05 02:02:17 GMT 32.882500 -97.033051 0 345 17 0
2020-05-05 02:02:14 GMT 32.882240 -97.032967 0 356 14 0
2020-05-05 02:02:11 GMT 32.882069 -97.032928 0 353 17 0
2020-05-05 02:02:08 GMT 32.881840 -97.032890 0 6 15 -32
2020-05-05 02:02:05 GMT 32.881599 -97.032913 0 359 13 -32
2020-05-05 02:02:02 GMT 32.881439 -97.032913 0 4 14 -32
2020-05-05 02:01:59 GMT 32.881191 -97.032921 0 356 14 -32
2020-05-05 02:01:56 GMT 32.881001 -97.032898 0 2 15 -32
2020-05-05 02:01:53 GMT 32.880798 -97.032928 0 355 13 -32
2020-05-05 02:01:50 GMT 32.880619 -97.032913 0 7 12 -32
2020-05-05 02:01:47 GMT 32.880421 -97.032913 0 2 10 0
2020-05-05 02:01:44 GMT 32.880280 -97.032928 0 351 9 96
2020-05-05 02:01:41 GMT 32.880169 -97.032921 0 333 12 96
2020-05-05 02:01:38 GMT 32.880009 -97.032852 0 328 9 96
2020-05-05 02:01:35 GMT 32.879910 -97.032791 0 297 5 96
2020-05-05 02:01:32 GMT 32.879860 -97.032700 0 286 2 96
2020-05-05 02:01:29 GMT 32.879799 -97.032578 0 286 0 96
2020-05-05 02:01:26 GMT 32.879799 -97.032593 0 286 0 96
2020-05-05 02:01:23 GMT 32.879810 -97.032593 0 286 0 128
2020-05-05 02:01:20 GMT 32.879822 -97.032578 0 286 0 128
2020-05-05 02:01:17 GMT 32.879799 -97.032570 0 286 0 -96
2020-05-05 02:01:14 GMT 32.879799 -97.032570 0 286 0 -96
2020-05-05 02:01:11 GMT 32.879810 -97.032578 0 286 0 -96
2020-05-05 02:01:08 GMT 32.879822 -97.032578 0 286 0 0
2020-05-05 02:01:04 GMT 32.879822 -97.032593 0 286 0 0
2020-05-05 02:01:01 GMT 32.879822 -97.032578 0 286 0 0
2020-05-05 02:00:58 GMT 32.879810 -97.032593 0 286 0 0
2020-05-05 02:00:50 GMT 32.879822 -97.032593 0 286 0 0
2020-05-05 02:00:47 GMT 32.879822 -97.032578 0 286 0 0
2020-05-05 02:00:44 GMT 32.879822 -97.032593 0 286 0 0
2020-05-05 02:00:41 GMT 32.879822 -97.032578 0 286 0 0
2020-05-05 02:00:37 GMT 32.879810 -97.032578 0 289 1 0
2020-05-05 02:00:33 GMT 32.879822 -97.032578 0 287 1 0
2020-05-05 02:00:30 GMT 32.879810 -97.032593 0 283 6 0
2020-05-05 02:00:27 GMT 32.879791 -97.032532 0 277 8 0
2020-05-05 02:00:24 GMT 32.879768 -97.032433 0 270 10 0
2020-05-05 02:00:21 GMT 32.879768 -97.032242 0 265 8 0
2020-05-05 02:00:18 GMT 32.879780 -97.032082 0 266 10 0
2020-05-05 02:00:15 GMT 32.879768 -97.031929 0 270 11 0
2020-05-05 02:00:12 GMT 32.879780 -97.031754 0 271 12 0
2020-05-05 02:00:09 GMT 32.879768 -97.031570 0 274 12 0
2020-05-05 02:00:06 GMT 32.879749 -97.031357 0 272 16 0
2020-05-05 02:00:03 GMT 32.879742 -97.031120 0 265 17 0
2020-05-05 02:00:00 GMT 32.879768 -97.030838 0 273 18 0
2020-05-05 01:59:57 GMT 32.879768 -97.030258 0 267 18 0
2020-05-05 01:59:54 GMT 32.879768 -97.030258 0 270 18 0
2020-05-05 01:59:51 GMT 32.879768 -97.029961 0 273 15 0
2020-05-05 01:59:48 GMT 32.879749 -97.029701 0 269 16 0
2020-05-05 01:59:45 GMT 32.879749 -97.029442 0 271 18 -32
2020-05-05 01:59:42 GMT 32.879742 -97.029129 0 270 17 -32
2020-05-05 01:59:39 GMT 32.879749 -97.028870 0 268 15 -32
2020-05-05 01:59:36 GMT 32.879761 -97.028641 0 269 16 -32
2020-05-05 01:59:33 GMT 32.879761 -97.028351 0 273 15 0
2020-05-05 01:59:30 GMT 32.879742 -97.028107 0 268 17 0
2020-05-05 01:59:27 GMT 32.879730 -97.027817 0 265 17 32
2020-05-05 01:59:24 GMT 32.879768 -97.027527 0 271 18 32
2020-05-05 01:59:21 GMT 32.879730 -97.027222 0 269 17 32
2020-05-05 01:59:18 GMT 32.879730 -97.026947 0 274 16 0
2020-05-05 01:59:15 GMT 32.879742 -97.026711 0 247 15 0
2020-05-05 01:59:12 GMT 32.879822 -97.026489 0 210 13 0
2020-05-05 01:59:09 GMT 32.879978 -97.026314 0 197 15 0
2020-05-05 01:59:06 GMT 32.880138 -97.026237 0 184 20 0
2020-05-05 01:59:03 GMT 32.880428 -97.026199 0 184 23 0
2020-05-05 01:59:00 GMT 32.880730 -97.026154 0 182 26 0
2020-05-05 01:58:57 GMT 32.881100 -97.026154 0 176 29 0
2020-05-05 01:58:54 GMT 32.881500 -97.026176 0 180 29 0
2020-05-05 01:58:51 GMT 32.881908 -97.026199 0 183 29 0
2020-05-05 01:58:48 GMT 32.882309 -97.026176 0 180 30 0
2020-05-05 01:58:45 GMT 32.882721 -97.026161 0 181 29 0
2020-05-05 01:58:42 GMT 32.883129 -97.026154 0 181 29 0
2020-05-05 01:58:39 GMT 32.883518 -97.026131 0 178 30 0
2020-05-05 01:58:36 GMT 32.883949 -97.026161 0 180 30 0
2020-05-05 01:58:33 GMT 32.884380 -97.026138 0 181 30 0
2020-05-05 01:58:30 GMT 32.884762 -97.026123 0 179 30 0
2020-05-05 01:58:27 GMT 32.885170 -97.026131 0 181 31 0
2020-05-05 01:58:24 GMT 32.886021 -97.026131 0 177 30 0
2020-05-05 01:58:21 GMT 32.886021 -97.026131 0 180 29 0
2020-05-05 01:58:18 GMT 32.886429 -97.026131 0 177 29 0
2020-05-05 01:58:15 GMT 32.887299 -97.026123 0 177 33 0
2020-05-05 01:58:12 GMT 32.887299 -97.026123 0 179 32 0
2020-05-05 01:58:09 GMT 32.887718 -97.026138 0 181 31 0
2020-05-05 01:58:06 GMT 32.888149 -97.026100 0 182 33 0
2020-05-05 01:58:03 GMT 32.888599 -97.026093 0 179 34 0
2020-05-05 01:58:00 GMT 32.889069 -97.026100 0 177 35 0
2020-05-05 01:57:57 GMT 32.889549 -97.026108 0 180 37 0
2020-05-05 01:57:54 GMT 32.890072 -97.026108 0 180 35 0
2020-05-05 01:57:51 GMT 32.890541 -97.026077 0 177 36 0
2020-05-05 01:57:48 GMT 32.891041 -97.026154 0 184 34 0
2020-05-05 01:57:45 GMT 32.891529 -97.026093 0 178 35 0
2020-05-05 01:57:42 GMT 32.892010 -97.026123 0 181 33 0
2020-05-05 01:57:39 GMT 32.892460 -97.026093 0 181 33 0
2020-05-05 01:57:36 GMT 32.892921 -97.026062 0 179 32 0
2020-05-05 01:57:33 GMT 32.893391 -97.026108 0 181 30 32
2020-05-05 01:57:30 GMT 32.893822 -97.026077 0 180 36 32
2020-05-05 01:57:27 GMT 32.894272 -97.026093 0 180 38 -128
2020-05-05 01:57:24 GMT 32.894791 -97.026070 0 181 41 -128
2020-05-05 01:57:21 GMT 32.895340 -97.026070 750 178 42 -64
2020-05-05 01:57:18 GMT 32.895920 -97.026077 750 181 44 -64
2020-05-05 01:57:15 GMT 32.896561 -97.026070 750 180 46 0
2020-05-05 01:57:12 GMT 32.897202 -97.026070 750 180 49 0
2020-05-05 01:57:09 GMT 32.897900 -97.026047 750 182 50 0
2020-05-05 01:57:06 GMT 32.898621 -97.026039 750 180 52 0
2020-05-05 01:57:03 GMT 32.899368 -97.026062 750 180 53 0
2020-05-05 01:57:00 GMT 32.900150 -97.026039 750 180 58 0
2020-05-05 01:56:57 GMT 32.901009 -97.026062 750 181 63 0
2020-05-05 01:56:54 GMT 32.901920 -97.026039 750 180 72 0
2020-05-05 01:56:51 GMT 32.902969 -97.026016 750 180 96 0
2020-05-05 01:56:48 GMT 32.904289 -97.026001 750 180 109 0
2020-05-05 01:56:45 GMT 32.905800 -97.026001 750 179 111 32
2020-05-05 01:56:42 GMT 32.907349 -97.026039 750 180 119 32
2020-05-05 01:56:39 GMT 32.908958 -97.025978 750 179 120 -192
2020-05-05 01:56:36 GMT 32.910629 -97.025970 750 181 124 -192
2020-05-05 01:56:33 GMT 32.912392 -97.025948 775 180 126 -192
2020-05-05 01:56:30 GMT 32.914139 -97.025932 825 180 128 -768
2020-05-05 01:56:27 GMT 32.915859 -97.025932 900 180 128 -768
2020-05-05 01:56:24 GMT 32.917610 -97.025909 850 180 128 -768
2020-05-05 01:56:21 GMT 32.919300 -97.025902 875 180 129 -768
2020-05-05 01:56:18 GMT 32.921040 -97.025902 900 181 126 -768
2020-05-05 01:56:15 GMT 32.922760 -97.025871 950 181 123 -768
2020-05-05 01:56:12 GMT 32.924450 -97.025848 950 180 124 -768
2020-05-05 01:56:09 GMT 32.926128 -97.025841 1,000 180 122 -768
2020-05-05 01:56:06 GMT 32.927769 -97.025879 1,100 180 123 -768
2020-05-05 01:56:03 GMT 32.929562 -97.025833 1,100 181 118 -256
2020-05-05 01:56:00 GMT 32.931141 -97.025833 1,100 180 124 -256
2020-05-05 01:55:57 GMT 32.932892 -97.025780 1,150 179 122 -256
2020-05-05 01:55:54 GMT 32.934601 -97.025787 1,150 181 123 -256
2020-05-05 01:55:51 GMT 32.936310 -97.025818 1,200 180 119 -256
2020-05-05 01:55:48 GMT 32.937939 -97.025757 1,200 180 122 -256
2020-05-05 01:55:45 GMT 32.939640 -97.025848 1,250 179 123 -256
2020-05-05 01:55:42 GMT 32.941261 -97.025787 1,300 180 122 -256
2020-05-05 01:55:39 GMT 32.942921 -97.025780 1,300 181 118 -256
2020-05-05 01:55:36 GMT 32.946121 -97.025757 1,350 179 118 -256
2020-05-05 01:55:33 GMT 32.946121 -97.025757 1,400 180 123 -256
2020-05-05 01:55:30 GMT 32.947830 -97.025726 1,400 179 123 -256
2020-05-05 01:55:27 GMT 32.949440 -97.025726 1,500 180 117 -256
2020-05-05 01:55:24 GMT 32.951080 -97.025749 1,500 181 119 -256
2020-05-05 01:55:21 GMT 32.952721 -97.025703 1,500 181 116 -256
2020-05-05 01:55:18 GMT 32.954350 -97.025627 1,600 181 114 32
2020-05-05 01:55:15 GMT 32.955952 -97.025612 1,575 179 117 -640
2020-05-05 01:55:12 GMT 32.957531 -97.025574 1,575 178 112 -640
2020-05-05 01:55:09 GMT 32.959148 -97.025681 1,575 180 120 -640
2020-05-05 01:55:06 GMT 32.960850 -97.025681 1,600 179 114 -640
2020-05-05 01:55:03 GMT 32.962399 -97.025703 1,650 179 113 -640
2020-05-05 01:55:00 GMT 32.963989 -97.025673 1,725 180 116 -512
2020-05-05 01:54:57 GMT 32.965591 -97.025681 1,725 181 114 -512
2020-05-05 01:54:54 GMT 32.967171 -97.025627 1,750 181 110 -512
2020-05-05 01:54:51 GMT 32.968788 -97.025612 1,800 180 110 -512
2020-05-05 01:54:48 GMT 32.970379 -97.025581 1,800 178 107 -512
2020-05-05 01:54:43 GMT 32.973274 -97.025589 1,850 182 113 -576
2020-05-05 01:54:39 GMT 32.974903 -97.025536 1,850 182 113 -448
2020-05-05 01:54:31 GMT 32.978851 -97.025482 1,950 181 114 -704
2020-05-05 01:54:28 GMT 32.980316 -97.025482 1,950 181 114 -512
2020-05-05 01:54:21 GMT 32.984802 -97.025429 2,050 181 114 -768
2020-05-05 01:54:17 GMT 32.986267 -97.025429 2,075 179 113 -640
2020-05-05 01:54:10 GMT 32.990173 -97.025475 2,150 180 114 -640
2020-05-05 01:54:05 GMT 32.992737 -97.025475 2,225 180 114 -640
2020-05-05 01:54:00 GMT 32.995605 -97.025482 2,275 180 115 -640
2020-05-05 01:53:57 GMT 32.996971 -97.025475 2,300 181 115 -704
2020-05-05 01:53:50 GMT 33.001347 -97.025307 2,400 181 120 -896
2020-05-05 01:53:45 GMT 33.004120 -97.025314 2,475 180 125 -832
2020-05-05 01:53:39 GMT 33.007118 -97.025307 2,550 179 131 -1024
2020-05-05 01:53:36 GMT 33.008926 -97.025375 2,575 179 132 -832
2020-05-05 01:53:33 GMT 33.010471 -97.025368 2,600 179 134 -384
2020-05-05 01:53:30 GMT 33.012680 -97.025429 2,625 180 138 -320
2020-05-05 01:53:27 GMT 33.014614 -97.025421 2,625 180 138 -320
2020-05-05 01:53:24 GMT 33.017075 -97.025375 2,625 182 137 64
2020-05-05 01:53:19 GMT 33.020153 -97.025253 2,625 183 137 -256
2020-05-05 01:53:16 GMT 33.021782 -97.025192 2,650 183 136 -320
2020-05-05 01:53:12 GMT 33.023849 -97.025101 2,650 183 135 -64
2020-05-05 01:53:09 GMT 33.026642 -97.024879 2,675 185 134 -384
2020-05-05 01:53:05 GMT 33.028301 -97.024750 2,700 186 133 -512
2020-05-05 01:53:02 GMT 33.030121 -97.024490 2,725 187 133 -896
2020-05-05 01:52:58 GMT 33.033234 -97.024078 2,825 187 133 -1280
2020-05-05 01:52:54 GMT 33.034958 -97.023849 2,875 187 132 -1152
2020-05-05 01:52:47 GMT 33.039505 -97.023178 3,000 189 133 -960
2020-05-05 01:52:43 GMT 33.041702 -97.022789 3,050 189 134 -1088
2020-05-05 01:52:39 GMT 33.045338 -97.022224 3,150 187 135 -960
2020-05-05 01:52:34 GMT 33.047470 -97.021965 3,200 184 139 -512
2020-05-05 01:52:27 GMT 33.052509 -97.021721 3,250 181 144 -320
2020-05-05 01:52:24 GMT 33.054184 -97.021721 3,275 179 150 -384
2020-05-05 01:52:20 GMT 33.056652 -97.021774 3,275 179 153 -448
2020-05-05 01:52:17 GMT 33.058655 -97.021774 3,300 178 156 -128
2020-05-05 01:52:14 GMT 33.061981 -97.021858 3,300 178 157 384
2020-05-05 01:52:10 GMT 33.064590 -97.021912 3,300 178 157 384
2020-05-05 01:52:06 GMT 33.067451 -97.021942 3,225 179 160 640
2020-05-05 01:52:02 GMT 33.069992 -97.022018 3,225 179 165 -448
2020-05-05 01:51:59 GMT 33.072617 -97.022057 3,250 179 166 -576
2020-05-05 01:51:56 GMT 33.075085 -97.022057 3,275 179 168 -704
2020-05-05 01:51:53 GMT 33.082207 -97.022110 3,325 179 169 -576
2020-05-05 01:51:47 GMT 33.082207 -97.022110 3,350 182 168 64
2020-05-05 01:51:44 GMT 33.084164 -97.022003 3,325 184 167 64
2020-05-05 01:51:40 GMT 33.087563 -97.021553 3,325 192 167 256
2020-05-05 01:51:36 GMT 33.089935 -97.020882 3,300 199 168 256
2020-05-05 01:51:32 GMT 33.093063 -97.019547 3,300 204 169 192
2020-05-05 01:51:29 GMT 33.095261 -97.018288 3,300 208 171 0
2020-05-05 01:51:24 GMT 33.099384 -97.015671 3,300 209 173 -192
2020-05-05 01:51:21 GMT 33.100456 -97.014938 3,300 211 177 -64
2020-05-05 01:51:18 GMT 33.103226 -97.013016 3,300 212 179 -192
2020-05-05 01:51:14 GMT 33.105904 -97.010956 3,325 215 182 -768
2020-05-05 01:51:11 GMT 33.107666 -97.009331 3,375 219 185 -896
2020-05-05 01:51:08 GMT 33.109818 -97.007301 3,425 222 185 -832
2020-05-05 01:51:04 GMT 33.112610 -97.004227 3,475 225 186 -896
2020-05-05 01:51:01 GMT 33.114235 -97.002327 3,500 226 186 -896
2020-05-05 01:50:54 GMT 33.117912 -96.997337 3,575 232 187 -768
2020-05-05 01:50:51 GMT 33.119869 -96.994423 3,650 232 188 -832
2020-05-05 01:50:43 GMT 33.124786 -96.987030 3,750 232 190 -832
2020-05-05 01:50:34 GMT 33.129135 -96.980385 3,825 233 195 -64
2020-05-05 01:50:30 GMT 33.131332 -96.976921 3,825 236 197 -640
2020-05-05 01:50:22 GMT 33.135635 -96.968681 3,950 243 201 -960
2020-05-05 01:50:19 GMT 33.136395 -96.967010 3,975 244 201 -1024
2020-05-05 01:50:16 GMT 33.137558 -96.964043 4,025 246 202 -896
2020-05-05 01:50:13 GMT 33.138954 -96.960396 4,100 246 204 -832
2020-05-05 01:50:10 GMT 33.140305 -96.956924 4,100 246 204 -832
2020-05-05 01:50:07 GMT 33.142818 -96.950592 4,200 246 204 -512
2020-05-05 01:50:01 GMT 33.143829 -96.947922 4,225 246 206 -512
2020-05-05 01:49:58 GMT 33.144653 -96.945885 4,250 245 207 -704
2020-05-05 01:49:51 GMT 33.148087 -96.937263 4,400 245 211 -1152
2020-05-05 01:49:48 GMT 33.148918 -96.935287 4,400 245 211 -1152
2020-05-05 01:49:42 GMT 33.151566 -96.928802 4,525 244 211 -1216
2020-05-05 01:49:38 GMT 33.153385 -96.924355 4,600 244 212 -832
2020-05-05 01:49:31 GMT 33.156326 -96.917435 4,700 243 214 -1152
2020-05-05 01:49:28 GMT 33.157974 -96.913643 4,750 243 216 -768
2020-05-05 01:49:22 GMT 33.160995 -96.906830 4,875 242 217 -1344
2020-05-05 01:49:17 GMT 33.162964 -96.902657 4,925 241 218 -1472
2020-05-05 01:49:10 GMT 33.166351 -96.895401 5,125 242 217 -1216
2020-05-05 01:49:07 GMT 33.168091 -96.891617 5,200 242 218 -1088
2020-05-05 01:49:00 GMT 33.171265 -96.884674 5,375 242 223 -1152
2020-05-05 01:48:57 GMT 33.173172 -96.880516 5,400 242 220 -1216
2020-05-05 01:48:50 GMT 33.176239 -96.873703 5,575 242 222 -1216
2020-05-05 01:48:47 GMT 33.178150 -96.869591 5,600 242 222 -1152
2020-05-05 01:48:44 GMT 33.179077 -96.867607 5,650 242 223 -1152
2020-05-05 01:48:40 GMT 33.181458 -96.862442 5,725 242 225 -1280
2020-05-05 01:48:36 GMT 33.183701 -96.857666 5,825 242 226 -1088
2020-05-05 01:48:30 GMT 33.186722 -96.851181 5,975 241 228 -1216
2020-05-05 01:48:25 GMT 33.189510 -96.845207 6,050 242 229 -1344
2020-05-05 01:48:17 GMT 33.192993 -96.837448 6,150 243 229 -1408
2020-05-05 01:48:14 GMT 33.194538 -96.834000 6,250 243 230 -1216
2020-05-05 01:48:09 GMT 33.197376 -96.827164 6,375 244 232 -1088
2020-05-05 01:48:05 GMT 33.198761 -96.823776 6,425 245 232 -1088
2020-05-05 01:48:02 GMT 33.200588 -96.819260 6,500 245 233 -1088
2020-05-05 01:47:57 GMT 33.202698 -96.813828 6,600 246 238 -1088
2020-05-05 01:47:53 GMT 33.204712 -96.808609 6,650 246 238 -1088
2020-05-05 01:47:48 GMT 33.206642 -96.803619 6,750 246 241 -1152
2020-05-05 01:47:45 GMT 33.208282 -96.799438 6,775 246 239 -1216
2020-05-05 01:47:42 GMT 33.209381 -96.796524 6,900 247 241 -1344
2020-05-05 01:47:36 GMT 33.212311 -96.788727 6,975 246 242 -1408
2020-05-05 01:47:33 GMT 33.214043 -96.784111 7,050 246 241 -1280
2020-05-05 01:47:27 GMT 33.216091 -96.778732 7,175 247 242 -1024
2020-05-05 01:47:24 GMT 33.217907 -96.773857 7,200 247 242 -1024
2020-05-05 01:47:21 GMT 33.218792 -96.771446 7,225 247 243 -1024
2020-05-05 01:47:15 GMT 33.221912 -96.762985 7,350 247 244 -1024
2020-05-05 01:47:12 GMT 33.223434 -96.758789 7,350 247 244 -1024
2020-05-05 01:47:05 GMT 33.227310 -96.748131 7,550 247 246 -1088
2020-05-05 01:46:59 GMT 33.228756 -96.744202 8,350 250 262 -832
2020-05-05 01:46:54 GMT 33.230942 -96.738152 7,675 247 245 -960
2020-05-05 01:46:51 GMT 33.232899 -96.732658 8,350 250 262 -832
2020-05-05 01:46:45 GMT 33.235413 -96.725594 7,875 248 247 -1408
2020-05-05 01:46:42 GMT 33.236481 -96.722626 7,950 248 247 -1280
2020-05-05 01:46:39 GMT 33.237808 -96.718796 8,000 248 249 -1280
2020-05-05 01:46:34 GMT 33.240299 -96.711304 8,100 249 252 -1024
2020-05-05 01:46:30 GMT 33.241928 -96.706329 8,175 250 254 -960
2020-05-05 01:46:24 GMT 33.243942 -96.700012 8,275 250 258 -1152
2020-05-05 01:46:21 GMT 33.245453 -96.695175 8,300 250 259 -1024
2020-05-05 01:46:18 GMT 33.246910 -96.690620 8,350 250 262 -832
2020-05-05 01:46:14 GMT 33.248585 -96.685181 8,425 250 265 -1088
2020-05-05 01:46:09 GMT 33.251053 -96.677444 8,525 250 268 -1088
2020-05-05 01:46:04 GMT 33.253052 -96.671066 8,600 250 268 -1216
2020-05-05 01:46:01 GMT 33.254379 -96.666779 8,675 250 267 -1088
2020-05-05 01:45:57 GMT 33.255661 -96.662766 8,700 250 266 -768
2020-05-05 01:45:54 GMT 33.257126 -96.657936 8,750 250 263 -1088
2020-05-05 01:45:51 GMT 33.258224 -96.654472 8,750 250 263 -1088
2020-05-05 01:45:48 GMT 33.259991 -96.648743 8,850 250 264 -1152
2020-05-05 01:45:42 GMT 33.262482 -96.640854 8,950 250 263 -896
2020-05-05 01:45:39 GMT 33.263306 -96.638107 8,975 250 263 -832
2020-05-05 01:45:36 GMT 33.264599 -96.634003 9,025 250 263 -896
2020-05-05 01:45:33 GMT 33.266052 -96.629318 9,100 250 262 -1216
2020-05-05 01:45:30 GMT 33.267517 -96.624535 9,150 250 262 -1216
2020-05-05 01:45:27 GMT 33.269028 -96.619591 9,225 250 262 -1216
2020-05-05 01:45:22 GMT 33.270603 -96.614441 9,350 250 262 -1088
2020-05-05 01:45:19 GMT 33.272003 -96.609955 9,450 250 261 -1088
2020-05-05 01:45:15 GMT 33.273285 -96.605911 9,425 250 261 -1152
2020-05-05 01:45:12 GMT 33.274982 -96.600319 9,475 250 262 -1152
2020-05-05 01:45:09 GMT 33.276627 -96.595146 9,575 250 261 -1216
2020-05-05 01:45:06 GMT 33.277679 -96.591797 9,625 250 261 -1088
2020-05-05 01:45:02 GMT 33.279308 -96.586639 9,675 250 262 -1024
2020-05-05 01:44:58 GMT 33.280884 -96.581467 9,750 250 262 -1152
2020-05-05 01:44:52 GMT 33.283688 -96.572456 9,875 250 263 -1216
2020-05-05 01:44:47 GMT 33.285175 -96.567635 9,950 250 264 -1024
2020-05-05 01:44:44 GMT 33.286972 -96.561806 10,025 251 263 -960
2020-05-05 01:44:41 GMT 33.288017 -96.558334 10,050 251 263 -1088
2020-05-05 01:44:38 GMT 33.289627 -96.553070 10,125 250 265 -1280
2020-05-05 01:44:33 GMT 33.291138 -96.548126 10,200 250 266 -1024
2020-05-05 01:44:30 GMT 33.292465 -96.543785 10,250 251 265 -1024
2020-05-05 01:44:27 GMT 33.294159 -96.538132 10,325 251 267 -1088
2020-05-05 01:44:23 GMT 33.295742 -96.532829 10,400 251 269 -1152
2020-05-05 01:44:19 GMT 33.297375 -96.527283 10,475 252 270 -1024
2020-05-05 01:44:15 GMT 33.298553 -96.522964 10,525 252 281 -1088
2020-05-05 01:44:10 GMT 33.300724 -96.515282 10,625 252 275 -1472
2020-05-05 01:44:07 GMT 33.302166 -96.509903 10,725 252 276 -1472
2020-05-05 01:44:03 GMT 33.303936 -96.503517 10,825 253 277 -1536
2020-05-05 01:43:59 GMT 33.304779 -96.500282 10,875 253 277 -1472
2020-05-05 01:43:56 GMT 33.306263 -96.494766 11,475 252 281 -1088
2020-05-05 01:43:50 GMT 33.308853 -96.485229 11,075 253 278 -640
2020-05-05 01:43:45 GMT 33.310406 -96.479523 11,125 253 278 -640
2020-05-05 01:43:42 GMT 33.312130 -96.473190 11,200 252 279 -1344
2020-05-05 01:43:39 GMT 33.313065 -96.469849 11,250 252 280 -1344
2020-05-05 01:43:36 GMT 33.314529 -96.464684 11,300 252 281 -1088
2020-05-05 01:43:31 GMT 33.316315 -96.458092 11,400 252 281 -1216
2020-05-05 01:43:28 GMT 33.317345 -96.454414 11,450 252 281 -1344
2020-05-05 01:43:25 GMT 33.318832 -96.449196 11,525 251 282 -1344
2020-05-05 01:43:19 GMT 33.321953 -96.439499 11,675 248 283 -1088
2020-05-05 01:43:14 GMT 33.324047 -96.433784 11,700 246 283 -1216
2020-05-05 01:43:08 GMT 33.327805 -96.425079 11,875 241 288 -1216
2020-05-05 01:43:03 GMT 33.330936 -96.418709 11,975 238 292 -1216
2020-05-05 01:43:00 GMT 33.334442 -96.412498 12,075 235 295 -1408
2020-05-05 01:42:57 GMT 33.335724 -96.410355 12,125 234 297 -1344
2020-05-05 01:42:53 GMT 33.338837 -96.405632 12,200 231 301 -1408
2020-05-05 01:42:47 GMT 33.344810 -96.397179 12,375 230 307 -1408
2020-05-05 01:42:44 GMT 33.348114 -96.392586 12,425 230 309 -1408
2020-05-05 01:42:37 GMT 33.354309 -96.383934 12,575 230 312 -1600
2020-05-05 01:42:32 GMT 33.358383 -96.378220 12,700 230 311 -1280
2020-05-05 01:42:27 GMT 33.363941 -96.370560 12,825 230 311 -1600
2020-05-05 01:42:23 GMT 33.367538 -96.365585 12,925 230 311 -1728
2020-05-05 01:42:16 GMT 33.373993 -96.356689 13,100 230 313 -1216
2020-05-05 01:42:13 GMT 33.377163 -96.352226 13,150 230 313 -1280
2020-05-05 01:42:05 GMT 33.383835 -96.343063 13,325 230 314 -1280
2020-05-05 01:42:02 GMT 33.387268 -96.338341 13,400 229 315 -1600
2020-05-05 01:41:56 GMT 33.393967 -96.329132 13,550 229 315 -1280
2020-05-05 01:41:51 GMT 33.397411 -96.324425 13,625 229 316 -1280
2020-05-05 01:41:45 GMT 33.403702 -96.315872 13,775 229 316 -1472
2020-05-05 01:41:42 GMT 33.407516 -96.310692 13,875 229 317 -1216
2020-05-05 01:41:34 GMT 33.413708 -96.302231 14,050 229 318 -1792
2020-05-05 01:41:30 GMT 33.417389 -96.297256 14,150 229 318 -1856
2020-05-05 01:41:25 GMT 33.423615 -96.288795 14,300 230 317 -960
2020-05-05 01:41:21 GMT 33.427414 -96.283409 14,350 232 317 -960
2020-05-05 01:41:13 GMT 33.433502 -96.273911 14,500 235 318 -1792
2020-05-05 01:41:10 GMT 33.436703 -96.268433 14,625 237 319 -1408
2020-05-05 01:41:04 GMT 33.441826 -96.258904 14,750 240 323 -1536
2020-05-05 01:40:59 GMT 33.444717 -96.253036 15,100 240 323 -1600
2020-05-05 01:40:53 GMT 33.449181 -96.243202 15,000 244 329 -1024
2020-05-05 01:40:50 GMT 33.451927 -96.236702 15,050 245 331 -896
2020-05-05 01:40:43 GMT 33.456207 -96.225624 15,225 247 337 -1728
2020-05-05 01:40:39 GMT 33.458633 -96.218918 15,325 248 338 -1728
2020-05-05 01:40:33 GMT 33.462433 -96.207550 15,600 249 342 -1728
2020-05-05 01:40:28 GMT 33.464634 -96.200829 15,600 249 342 -1344
2020-05-05 01:40:22 GMT 33.468475 -96.189095 15,800 249 343 -1728
2020-05-05 01:40:19 GMT 33.470535 -96.182831 15,875 249 343 -2112
2020-05-05 01:40:14 GMT 33.473248 -96.174538 16,025 249 344 -1408
2020-05-05 01:40:11 GMT 33.474976 -96.169151 16,075 249 345 -1344
2020-05-05 01:40:08 GMT 33.476578 -96.164207 16,175 249 346 -1984
2020-05-05 01:40:02 GMT 33.480556 -96.151787 16,450 250 347 -2240
2020-05-05 01:39:57 GMT 33.482372 -96.146065 16,575 250 348 -2240
2020-05-05 01:39:52 GMT 33.485275 -96.136909 16,725 250 348 -1856
2020-05-05 01:39:48 GMT 33.488297 -96.127518 16,900 249 350 -1792
2020-05-05 01:39:43 GMT 33.493149 -96.113121 17,100 248 351 -1536
2020-05-05 01:39:39 GMT 33.493149 -96.113121 17,100 248 350 -1472
2020-05-05 01:39:36 GMT 33.494934 -96.108124 17,150 247 350 -960
2020-05-05 01:39:33 GMT 33.497681 -96.100433 17,200 248 350 -832
2020-05-05 01:39:27 GMT 33.501320 -96.089905 17,275 248 351 -896
2020-05-05 01:39:22 GMT 33.504089 -96.081589 17,375 249 351 -1280
2020-05-05 01:39:18 GMT 33.506161 -96.075493 17,400 249 353 -1536
2020-05-05 01:39:15 GMT 33.508114 -96.069611 17,550 249 353 -1600
2020-05-05 01:39:11 GMT 33.510258 -96.063110 17,625 249 353 -1600
2020-05-05 01:39:08 GMT 33.512909 -96.055038 17,750 249 354 -1024
2020-05-05 01:39:05 GMT 33.513885 -96.052124 17,775 249 354 -1344
2020-05-05 01:39:02 GMT 33.516308 -96.045006 17,850 248 353 -832
2020-05-05 01:38:59 GMT 33.517845 -96.040466 17,900 248 354 -960
2020-05-05 01:38:56 GMT 33.520157 -96.033691 17,950 248 355 -1280
2020-05-05 01:38:51 GMT 33.522823 -96.025948 18,025 249 355 -768
2020-05-05 01:38:48 GMT 33.525246 -96.018715 18,125 249 355 -1216
2020-05-05 01:38:45 GMT 33.529388 -96.006104 18,175 249 355 -1216
2020-05-05 01:38:40 GMT 33.529388 -96.006104 18,200 249 356 -1408
2020-05-05 01:38:37 GMT 33.531921 -95.998367 18,250 249 356 -1600
2020-05-05 01:38:34 GMT 33.533569 -95.993210 18,375 250 358 -1216
2020-05-05 01:38:28 GMT 33.536774 -95.982986 18,500 250 358 -1728
2020-05-05 01:38:25 GMT 33.538746 -95.976677 18,600 250 360 -1728
2020-05-05 01:38:21 GMT 33.541077 -95.969391 18,725 250 360 -1984
2020-05-05 01:38:17 GMT 33.542843 -95.963799 18,800 249 361 -1920
2020-05-05 01:38:13 GMT 33.545776 -95.954880 18,950 249 361 -1856
2020-05-05 01:38:08 GMT 33.548988 -95.945206 19,100 249 362 -1792
2020-05-05 01:38:03 GMT 33.552292 -95.935143 19,250 249 363 -1408
2020-05-05 01:38:00 GMT 33.553642 -95.931015 19,325 249 364 -1344
2020-05-05 01:37:57 GMT 33.555542 -95.925385 19,400 249 365 -1088
2020-05-05 01:37:53 GMT 33.557968 -95.918045 19,475 249 367 -1216
2020-05-05 01:37:50 GMT 33.560074 -95.911880 19,525 249 367 -1600
2020-05-05 01:37:47 GMT 33.562363 -95.905098 19,625 248 367 -1792
2020-05-05 01:37:43 GMT 33.564259 -95.899429 19,750 249 368 -1856
2020-05-05 01:37:40 GMT 33.566769 -95.891815 19,825 249 369 -1536
2020-05-05 01:37:33 GMT 33.571152 -95.878471 20,000 249 370 -1664
2020-05-05 01:37:29 GMT 33.572964 -95.872932 20,075 249 371 -1664
2020-05-05 01:37:25 GMT 33.575134 -95.866196 20,150 249 371 -1472
2020-05-05 01:37:22 GMT 33.577377 -95.859413 20,300 249 370 -1536
2020-05-05 01:37:19 GMT 33.579391 -95.853188 20,325 249 371 -1536
2020-05-05 01:37:16 GMT 33.581482 -95.846725 20,400 249 370 -1600
2020-05-05 01:37:12 GMT 33.583714 -95.839867 20,525 249 370 -1856
2020-05-05 01:37:09 GMT 33.586349 -95.831833 20,625 249 370 -1600
2020-05-05 01:37:05 GMT 33.588135 -95.826286 20,700 249 369 -1472
2020-05-05 01:37:02 GMT 33.590233 -95.819839 20,800 249 370 -1600
2020-05-05 01:36:58 GMT 33.592117 -95.814064 20,875 249 370 -1664
2020-05-05 01:36:54 GMT 33.595596 -95.803307 21,050 249 371 -1856
2020-05-05 01:36:50 GMT 33.597839 -95.796410 21,150 249 371 -1792
2020-05-05 01:36:45 GMT 33.600815 -95.787216 21,275 249 372 -1536
2020-05-05 01:36:40 GMT 33.603287 -95.779648 21,375 249 373 -1472
2020-05-05 01:36:37 GMT 33.605347 -95.773315 21,450 249 375 -1728
2020-05-05 01:36:31 GMT 33.609924 -95.759468 21,675 249 376 -1792
2020-05-05 01:36:28 GMT 33.611755 -95.753975 21,750 249 377 -1472
2020-05-05 01:36:23 GMT 33.614441 -95.745789 22,000 249 377 -1920
2020-05-05 01:36:20 GMT 33.616207 -95.740356 21,950 249 377 -1856
2020-05-05 01:36:17 GMT 33.618256 -95.734116 22,050 249 378 -1792
2020-05-05 01:36:14 GMT 33.620445 -95.727196 22,125 250 378 -1408
2020-05-05 01:36:09 GMT 33.622959 -95.719414 22,225 250 378 -1472
2020-05-05 01:36:06 GMT 33.624729 -95.713860 22,300 249 379 -1792
2020-05-05 01:36:00 GMT 33.629471 -95.699211 22,550 249 379 -1920
2020-05-05 01:35:56 GMT 33.631302 -95.693718 22,625 249 380 -1536
2020-05-05 01:35:53 GMT 33.633911 -95.685875 22,725 249 381 -1536
2020-05-05 01:35:49 GMT 33.636200 -95.678925 22,825 249 382 -1536
2020-05-05 01:35:46 GMT 33.637901 -95.673698 22,875 249 383 -1664
2020-05-05 01:35:42 GMT 33.640465 -95.665741 22,950 249 382 -1728
2020-05-05 01:35:39 GMT 33.642883 -95.658241 23,100 249 384 -1856
2020-05-05 01:35:35 GMT 33.644836 -95.652290 23,200 249 384 -1728
2020-05-05 01:35:32 GMT 33.647072 -95.645256 23,300 249 385 -1728
2020-05-05 01:35:26 GMT 33.652176 -95.629539 23,500 249 386 -1728
2020-05-05 01:35:22 GMT 33.653961 -95.624161 23,600 249 387 -1792
2020-05-05 01:35:18 GMT 33.656845 -95.615356 23,725 249 387 -1856
2020-05-05 01:35:14 GMT 33.658852 -95.609154 23,875 249 387 -1600
2020-05-05 01:35:11 GMT 33.660667 -95.603714 23,875 249 387 -1600
2020-05-05 01:35:07 GMT 33.663597 -95.594727 24,000 249 388 -1472
2020-05-05 01:35:03 GMT 33.665928 -95.587692 24,100 249 389 -1664
2020-05-05 01:35:00 GMT 33.667507 -95.582657 24,175 249 389 -1856
2020-05-05 01:34:57 GMT 33.670532 -95.573433 24,325 249 390 -1920
2020-05-05 01:34:54 GMT 33.672489 -95.567383 24,425 249 391 -1728
2020-05-05 01:34:51 GMT 33.674194 -95.562111 24,475 249 392 -1664
2020-05-05 01:34:48 GMT 33.676682 -95.554390 24,600 249 392 -1792
2020-05-05 01:34:44 GMT 33.678314 -95.549271 24,750 249 392 -1728
2020-05-05 01:34:40 GMT 33.680870 -95.541405 24,775 249 392 -1664
2020-05-05 01:34:37 GMT 33.683395 -95.533691 25,050 249 395 -1920
2020-05-05 01:34:33 GMT 33.686050 -95.525566 24,975 249 394 -1792
2020-05-05 01:34:29 GMT 33.687946 -95.519600 25,075 249 395 -2048
2020-05-05 01:34:26 GMT 33.690369 -95.512100 25,200 250 396 -2048
2020-05-05 01:34:22 GMT 33.692741 -95.504662 25,350 250 396 -1408
2020-05-05 01:34:19 GMT 33.694603 -95.498886 25,375 250 396 -1280
2020-05-05 01:34:15 GMT 33.697208 -95.490585 25,475 250 398 -1600
2020-05-05 01:34:12 GMT 33.699463 -95.483521 25,575 250 399 -2112
2020-05-05 01:34:06 GMT 33.703949 -95.469345 25,850 249 401 -2432
2020-05-05 01:34:02 GMT 33.706474 -95.461639 26,025 249 401 -2240
2020-05-05 01:33:59 GMT 33.708427 -95.455627 26,100 249 401 -1984
2020-05-05 01:33:55 GMT 33.710850 -95.448189 26,200 249 401 -1472
2020-05-05 01:33:51 GMT 33.713608 -95.439636 26,300 249 402 -1344
2020-05-05 01:33:48 GMT 33.715302 -95.434479 26,350 249 402 -1408
2020-05-05 01:33:45 GMT 33.718002 -95.426178 26,450 249 403 -1344
2020-05-05 01:33:41 GMT 33.720749 -95.417831 26,550 249 404 -1408
2020-05-05 01:33:37 GMT 33.722488 -95.412369 26,600 249 405 -1536
2020-05-05 01:33:32 GMT 33.725830 -95.402077 26,800 250 416 -1664
2020-05-05 01:33:28 GMT 33.729565 -95.390511 26,925 249 407 -2112
2020-05-05 01:33:23 GMT 33.732925 -95.380104 27,100 249 409 -1920
2020-05-05 01:33:17 GMT 33.736542 -95.368950 27,250 249 410 -1472
2020-05-05 01:33:14 GMT 33.739105 -95.361099 27,325 249 411 -1728
2020-05-05 01:33:10 GMT 33.741760 -95.352753 27,475 250 413 -2112
2020-05-05 01:33:06 GMT 33.743809 -95.346336 27,575 250 414 -2176
2020-05-05 01:33:02 GMT 33.746979 -95.336494 27,725 250 414 -1728
2020-05-05 01:32:59 GMT 33.748978 -95.330032 27,800 250 416 -1664
2020-05-05 01:32:56 GMT 33.751007 -95.323547 27,875 250 415 -1536
2020-05-05 01:32:52 GMT 33.753258 -95.316177 27,950 250 415 -1088
2020-05-05 01:32:49 GMT 33.755959 -95.307541 28,000 250 415 -512
2020-05-05 01:32:46 GMT 33.757542 -95.302338 28,025 250 415 -256
2020-05-05 01:32:43 GMT 33.760288 -95.293755 28,025 249 415 0
2020-05-05 01:32:38 GMT 33.763081 -95.285172 28,000 249 415 192
2020-05-05 01:32:35 GMT 33.765640 -95.277443 28,000 249 415 256
2020-05-05 01:32:27 GMT 33.773930 -95.252609 27,950 249 415 256
2020-05-05 01:32:20 GMT 33.775604 -95.247459 27,950 250 416 -192
2020-05-05 01:32:11 GMT 33.782501 -95.225624 28,000 250 415 -192
2020-05-05 01:32:04 GMT 33.786942 -95.211555 28,000 250 415 -64
2020-05-05 01:32:00 GMT 33.789322 -95.203987 28,000 250 415 -64
2020-05-05 01:31:54 GMT 33.793671 -95.189972 28,000 250 414 320
2020-05-05 01:31:49 GMT 33.796600 -95.180504 28,000 250 414 192
2020-05-05 01:31:43 GMT 33.800903 -95.166656 27,975 250 415 -64
2020-05-05 01:31:39 GMT 33.803490 -95.158485 28,000 250 415 -256
2020-05-05 01:31:34 GMT 33.807449 -95.145920 28,025 250 415 -192
2020-05-05 01:31:29 GMT 33.810150 -95.137283 28,025 250 415 -64
2020-05-05 01:31:23 GMT 33.814499 -95.123497 28,025 250 415 192
2020-05-05 01:31:19 GMT 33.817474 -95.114021 28,025 250 415 192
2020-05-05 01:31:08 GMT 33.824524 -95.091545 27,975 250 415 128
2020-05-05 01:31:02 GMT 33.828644 -95.078651 27,975 249 415 -64
2020-05-05 01:30:58 GMT 33.832165 -95.067841 28,000 249 416 -128
2020-05-05 01:30:48 GMT 33.838440 -95.048386 28,000 249 415 0
2020-05-05 01:30:37 GMT 33.845757 -95.025444 27,975 250 416 -64
2020-05-05 01:30:30 GMT 33.850571 -95.010323 27,975 250 416 192
2020-05-05 01:30:27 GMT 33.852768 -95.003433 27,975 250 416 -128
2020-05-05 01:30:18 GMT 33.859497 -94.981911 28,000 250 415 64
2020-05-05 01:30:06 GMT 33.866661 -94.958839 27,975 250 415 0
2020-05-05 01:30:00 GMT 33.871269 -94.944191 27,975 249 416 -128
2020-05-05 01:29:56 GMT 33.873642 -94.936844 27,975 249 415 64
2020-05-05 01:29:46 GMT 33.880718 -94.914841 28,000 249 416 -128
2020-05-05 01:29:40 GMT 33.885590 -94.899788 28,000 250 416 64
2020-05-05 01:29:35 GMT 33.888062 -94.891998 28,000 250 416 64
2020-05-05 01:29:26 GMT 33.895157 -94.869522 28,000 250 415 -192
2020-05-05 01:29:19 GMT 33.899899 -94.854355 27,975 250 416 -192
2020-05-05 01:29:13 GMT 33.903809 -94.841774 27,975 250 416 -64
2020-05-05 01:29:06 GMT 33.907837 -94.828827 28,000 250 416 -128
2020-05-05 01:29:03 GMT 33.909859 -94.822311 28,000 250 416 -64
2020-05-05 01:28:54 GMT 33.916843 -94.799828 28,000 250 416 -64
2020-05-05 01:28:43 GMT 33.923492 -94.778549 28,000 250 415 -64
2020-05-05 01:28:32 GMT 33.931641 -94.752762 28,000 250 416 448
2020-05-05 01:28:24 GMT 33.937180 -94.735329 28,000 250 417 -320
2020-05-05 01:28:11 GMT 33.953568 -94.683258 28,000 250 418 -64
2020-05-05 01:28:00 GMT 33.953568 -94.683258 28,000 250 417 -192
2020-05-05 01:27:55 GMT 33.956085 -94.675201 28,025 250 418 -64
2020-05-05 01:27:51 GMT 33.958881 -94.666267 28,000 250 418 128
2020-05-05 01:27:41 GMT 33.965698 -94.644302 28,000 250 418 0
2020-05-05 01:27:32 GMT 33.972565 -94.622551 28,000 250 418 0
2020-05-05 01:27:26 GMT 33.975826 -94.612373 28,000 250 418 -128
2020-05-05 01:27:20 GMT 33.980202 -94.598465 28,000 250 418 64
2020-05-05 01:27:17 GMT 33.982178 -94.592117 28,000 250 418 -64
2020-05-05 01:27:08 GMT 33.989090 -94.570198 28,000 250 418 128
2020-05-05 01:27:01 GMT 33.993935 -94.554977 28,000 250 418 -64
2020-05-05 01:26:50 GMT 34.000854 -94.532761 28,000 250 418 -128
2020-05-05 01:26:42 GMT 34.006130 -94.515610 28,000 250 417 256
2020-05-05 01:26:39 GMT 34.008224 -94.508858 28,000 250 417 256
2020-05-05 01:26:30 GMT 34.014816 -94.487358 28,000 250 418 -64
2020-05-05 01:26:25 GMT 34.018234 -94.476242 28,000 250 419 128
2020-05-05 01:26:18 GMT 34.022095 -94.463699 28,000 250 420 0
2020-05-05 01:26:08 GMT 34.028755 -94.442139 28,000 250 420 -64
2020-05-05 01:26:02 GMT 34.032990 -94.428444 28,000 250 419 192
2020-05-05 01:25:58 GMT 34.035645 -94.419807 27,975 250 419 128
2020-05-05 01:25:54 GMT 34.039089 -94.408836 28,000 250 419 -320
2020-05-05 01:25:46 GMT 34.043884 -94.393463 28,000 250 418 64
2020-05-05 01:25:43 GMT 34.046165 -94.386063 28,000 250 418 128
2020-05-05 01:25:38 GMT 34.050064 -94.373566 28,000 250 419 0
2020-05-05 01:25:32 GMT 34.054138 -94.360229 28,000 250 418 -64
2020-05-05 01:25:27 GMT 34.056839 -94.351540 28,000 250 418 -64
2020-05-05 01:25:21 GMT 34.060776 -94.338531 28,000 250 417 64
2020-05-05 01:25:16 GMT 34.064182 -94.327522 28,000 250 418 64
2020-05-05 01:25:06 GMT 34.071396 -94.304344 28,000 250 418 -128
2020-05-05 01:24:56 GMT 34.077988 -94.283493 28,000 250 417 128
2020-05-05 01:24:44 GMT 34.085735 -94.258743 28,000 250 416 128
2020-05-05 01:24:36 GMT 34.091858 -94.239151 27,975 250 416 64
2020-05-05 01:24:30 GMT 34.095291 -94.227829 27,975 250 416 -64
2020-05-05 01:24:24 GMT 34.099140 -94.215202 28,000 250 416 -64
2020-05-05 01:24:19 GMT 34.102661 -94.203728 28,000 250 415 -64
2020-05-05 01:23:52 GMT 34.121933 -94.140778 28,000 250 416 0
2020-05-05 01:23:46 GMT 34.124466 -94.132751 28,000 250 416 -128
2020-05-05 01:23:41 GMT 34.127838 -94.121834 28,000 250 416 -128
2020-05-05 01:23:36 GMT 34.131088 -94.111298 28,000 250 415 256
2020-05-05 01:23:32 GMT 34.134293 -94.100868 28,000 250 415 256
2020-05-05 01:23:26 GMT 34.138596 -94.086967 27,975 250 415 -128
2020-05-05 01:23:23 GMT 34.140152 -94.081924 28,000 250 415 -128
2020-05-05 01:23:13 GMT 34.147228 -94.058762 28,000 250 415 64
2020-05-05 01:23:04 GMT 34.158916 -94.020424 28,000 250 416 -64
2020-05-05 01:22:55 GMT 34.158916 -94.020424 28,000 251 415 64
2020-05-05 01:22:51 GMT 34.161289 -94.012589 28,000 251 416 64
2020-05-05 01:22:42 GMT 34.167805 -93.990784 27,975 251 416 -128
2020-05-05 01:22:33 GMT 34.173615 -93.971107 28,000 251 415 -128
2020-05-05 01:22:29 GMT 34.175583 -93.964577 28,000 251 416 -128
2020-05-05 01:22:23 GMT 34.179726 -93.950615 28,000 251 415 192
2020-05-05 01:22:19 GMT 34.181946 -93.943192 28,000 251 415 0
2020-05-05 01:22:14 GMT 34.186008 -93.929726 28,000 250 414 -128
2020-05-05 01:22:02 GMT 34.193848 -93.905136 28,000 249 416 64
2020-05-05 01:21:45 GMT 34.205841 -93.868561 28,000 249 416 64
2020-05-05 01:21:21 GMT 34.223557 -93.814384 28,000 249 416 -128
2020-05-05 01:20:47 GMT 34.247131 -93.742104 28,000 249 417 0
2020-05-05 01:19:20 GMT 34.307602 -93.556267 28,000 249 414 0
2020-05-05 01:19:15 GMT 34.310535 -93.547150 28,000 249 414 0
2020-05-05 01:19:03 GMT 34.319412 -93.519096 28,000 250 414 -64
2020-05-05 01:18:52 GMT 34.326595 -93.496117 28,000 250 413 -64
2020-05-05 01:18:47 GMT 34.330536 -93.483566 28,000 250 412 0
2020-05-05 01:18:22 GMT 34.353737 -93.409195 28,000 250 411 64
2020-05-05 01:18:12 GMT 34.353737 -93.409195 28,000 250 411 64
2020-05-05 01:18:09 GMT 34.355530 -93.403465 28,000 250 412 64
2020-05-05 01:18:03 GMT 34.359787 -93.389847 27,450 250 412 0
2020-05-05 01:17:46 GMT 34.371471 -93.352036 28,025 250 412 -256
2020-05-05 01:17:43 GMT 34.373100 -93.346886 28,025 250 412 128
2020-05-05 01:17:29 GMT 34.383251 -93.314262 28,000 250 412 192
2020-05-05 01:17:21 GMT 34.387905 -93.299446 27,975 250 412 256
We lost coverage of the aircraft here for a total of 58 minutes
2020-05-05 00:19:18 GMT 34.723057 -92.216667 300 226 130
2020-05-05 00:18:27 GMT 34.740555 -92.194168 500 224 129
2020-05-05 00:18:17 GMT 34.745834 -92.187775 600 227 130
2020-05-05 00:17:26 GMT 34.765556 -92.161392 1,100 236 129
2020-05-05 00:17:17 GMT 34.769169 -92.154724 1,200 225 132
2020-05-05 00:16:25 GMT 34.790558 -92.128334 1,900 254 147
2020-05-05 00:15:25 GMT 34.803055 -92.075279 2,000 277 188
2020-05-05 00:15:16 GMT 34.801945 -92.064445 2,000 349 198
2020-05-05 00:14:24 GMT 34.761112 -92.055275 2,000 53 237
2020-05-05 00:13:30 GMT 34.722221 -92.118332 2,900 42 298
2020-05-05 00:13:24 GMT 34.717499 -92.123611 3,100 46 276
2020-05-05 00:13:16 GMT 34.711109 -92.131943 3,200 53 280
2020-05-05 00:12:30 GMT 34.674721 -92.192223 4,300 48 312
2020-05-05 00:12:23 GMT 34.669445 -92.199448 4,400 60 302
2020-05-05 00:12:15 GMT 34.656944 -92.226112 4,700 61 308
2020-05-05 00:11:29 GMT 34.632221 -92.281670 5,000 60 312
2020-05-05 00:10:29 GMT 34.591946 -92.370003 5,500 60 315
2020-05-05 00:10:15 GMT 34.575279 -92.406113 5,700 61 315
2020-05-05 00:09:28 GMT 34.541943 -92.479721 6,500 60 321
2020-05-05 00:09:14 GMT 34.533333 -92.498337 6,800 60 325
2020-05-05 00:08:28 GMT 34.498890 -92.573891 8,100 60 333
2020-05-05 00:08:14 GMT 34.490002 -92.593330 8,300 60 335
2020-05-05 00:07:27 GMT 34.454445 -92.671112 9,400 60 336
2020-05-05 00:07:20 GMT 34.455833 -92.668053 9,300 60 334
2020-05-05 00:06:27 GMT 34.409443 -92.768890 10,100 60 371
2020-05-05 00:06:19 GMT 34.409443 -92.768333 10,000 60 377
2020-05-05 00:05:26 GMT 34.358055 -92.880836 11,100 18 388
2020-05-05 00:05:19 GMT 34.356667 -92.881386 11,000 63 388
2020-05-05 00:00:30 GMT 34.099094 -93.437920 19,300 60 415 -1856
2020-05-05 00:00:25 GMT 34.095978 -93.444557 19,575 60 417 -1856
2020-05-05 00:00:11 GMT 34.082428 -93.473526 20,025 60 422 -1920
2020-05-04 23:59:57 GMT 34.068146 -93.503967 20,500 60 425 -1920
2020-05-04 23:59:53 GMT 34.065445 -93.509743 20,575 60 425 -1920
2020-05-04 23:59:27 GMT 34.039787 -93.564262 21,400 60 433 -1920
2020-05-04 23:59:23 GMT 34.035877 -93.572617 21,550 60 433 -1920
2020-05-04 23:59:13 GMT 34.025070 -93.595558 21,875 60 434 -1920
2020-05-04 23:59:02 GMT 34.014999 -93.616859 22,200 60 435 -1920
2020-05-04 23:58:51 GMT 34.003876 -93.640511 22,575 60 435 -1920
2020-05-04 23:58:43 GMT 33.995003 -93.659309 22,850 60 436 -1920
2020-05-04 23:58:24 GMT 33.976894 -93.697586 23,425 60 438 -1920
2020-05-04 23:58:21 GMT 33.973984 -93.703735 23,525 60 440 -1984
2020-05-04 23:58:10 GMT 33.962997 -93.726944 23,875 60 443 -1984
2020-05-04 23:57:49 GMT 33.941422 -93.772545 24,575 60 449 -1984
2020-05-04 23:57:39 GMT 33.930344 -93.795837 24,925 60 452 -1984
2020-05-04 23:57:28 GMT 33.919693 -93.818367 25,275 60 454 -2048
2020-05-04 23:57:19 GMT 33.909348 -93.840172 25,600 60 454 -1984
2020-05-04 23:57:06 GMT 33.896965 -93.866272 26,000 60 453 -2048
2020-05-04 23:56:57 GMT 33.887604 -93.885963 26,300 60 453 -1984
2020-05-04 23:56:51 GMT 33.879974 -93.902039 26,550 60 453 -2048
2020-05-04 23:56:48 GMT 33.876755 -93.908722 26,650 60 454 -1984
2020-05-04 23:56:35 GMT 33.864212 -93.935120 27,050 60 457 -2048
2020-05-04 23:56:26 GMT 33.854694 -93.955025 27,350 60 460 -2048
2020-05-04 23:56:15 GMT 33.843109 -93.979408 27,725 60 465 -2048
2020-05-04 23:56:06 GMT 33.833176 -94.000259 28,050 60 468 -2048
2020-05-04 23:56:00 GMT 33.827133 -94.012978 28,300 60 473 -2048
2020-05-04 23:55:56 GMT 33.821735 -94.024261 28,425 60 472 -2112
2020-05-04 23:55:52 GMT 33.817566 -94.032990 28,650 60 473 -2048
2020-05-04 23:55:46 GMT 33.812347 -94.043922 28,700 60 474 -1984
2020-05-04 23:55:42 GMT 33.807770 -94.053497 28,850 60 474 -1920
2020-05-04 23:55:38 GMT 33.802094 -94.065346 28,950 60 471 -320
2020-05-04 23:55:34 GMT 33.798843 -94.072174 29,000 60 471 -512
2020-05-04 23:55:24 GMT 33.786915 -94.097099 29,000 60 471 -64
2020-05-04 23:55:14 GMT 33.776489 -94.118958 29,000 60 471 64
2020-05-04 23:55:08 GMT 33.770737 -94.131027 29,000 60 471 0
2020-05-04 23:55:03 GMT 33.764805 -94.143501 29,000 60 471 0
2020-05-04 23:54:53 GMT 33.754097 -94.166222 29,000 60 472 0
2020-05-04 23:54:42 GMT 33.742996 -94.189545 29,000 59 473 -64
2020-05-04 23:54:33 GMT 33.731827 -94.213425 29,000 61 473 64
2020-05-04 23:54:22 GMT 33.721462 -94.237175 29,000 63 474 64
2020-05-04 23:54:12 GMT 33.711639 -94.261292 29,000 64 474 -64
2020-05-04 23:54:02 GMT 33.701958 -94.286781 29,000 66 476 64
2020-05-04 23:53:58 GMT 33.698467 -94.296455 29,000 67 476 0
2020-05-04 23:53:51 GMT 33.693054 -94.312469 29,000 68 476 -64
2020-05-04 23:53:40 GMT 33.684361 -94.338631 29,000 68 476 0
2020-05-04 23:53:30 GMT 33.675934 -94.363808 29,000 68 476 64
2020-05-04 23:53:19 GMT 33.667191 -94.390045 29,000 68 475 0
2020-05-04 23:53:08 GMT 33.657223 -94.419937 29,000 68 476 0
2020-05-04 23:52:58 GMT 33.650425 -94.440308 29,000 68 476 -64
2020-05-04 23:52:47 GMT 33.641098 -94.468185 29,000 68 475 0
2020-05-04 23:52:38 GMT 33.633015 -94.492317 29,000 68 475 0
2020-05-04 23:52:28 GMT 33.625473 -94.514809 29,000 68 475 64
2020-05-04 23:52:17 GMT 33.615784 -94.543686 29,000 68 476 -64
2020-05-04 23:52:06 GMT 33.607784 -94.567619 29,000 68 476 -64
2020-05-04 23:51:57 GMT 33.599869 -94.591141 29,000 68 476 64
2020-05-04 23:51:54 GMT 33.596100 -94.602432 29,000 68 476 64
2020-05-04 23:51:47 GMT 33.590881 -94.617844 29,000 68 476 64
2020-05-04 23:51:44 GMT 33.589676 -94.621468 29,000 68 476 0
2020-05-04 23:51:39 GMT 33.585205 -94.634720 29,000 68 476 0
2020-05-04 23:51:35 GMT 33.580784 -94.647903 29,000 68 476 -64
2020-05-04 23:51:23 GMT 33.572216 -94.673370 29,000 68 476 -64
2020-05-04 23:51:14 GMT 33.563828 -94.698280 29,000 68 476 0
2020-05-04 23:51:03 GMT 33.555737 -94.722343 29,000 68 476 64
2020-05-04 23:50:52 GMT 33.541031 -94.765823 29,000 68 476 0
2020-05-04 23:50:45 GMT 33.541031 -94.765823 29,000 68 476 0
2020-05-04 23:50:42 GMT 33.537735 -94.775650 29,000 68 476 -64
2020-05-04 23:50:34 GMT 33.531464 -94.794212 29,000 68 476 -64
2020-05-04 23:50:31 GMT 33.529297 -94.800575 29,000 68 476 -64
2020-05-04 23:50:28 GMT 33.526966 -94.807472 29,000 68 476 -64
2020-05-04 23:50:22 GMT 33.521210 -94.824478 29,000 67 476 0
2020-05-04 23:50:17 GMT 33.517227 -94.836182 29,000 67 476 0
2020-05-04 23:50:10 GMT 33.507935 -94.863701 29,000 67 476 -64
2020-05-04 23:50:02 GMT 33.505280 -94.871506 29,000 67 476 0
2020-05-04 23:49:56 GMT 33.498852 -94.890541 29,000 67 476 0
2020-05-04 23:49:53 GMT 33.497173 -94.895477 29,000 67 476 0
2020-05-04 23:49:42 GMT 33.488655 -94.920639 29,000 67 475 0
2020-05-04 23:49:31 GMT 33.479782 -94.946701 29,000 67 475 0
2020-05-04 23:49:24 GMT 33.473339 -94.965767 29,000 67 475 64
2020-05-04 23:49:21 GMT 33.471336 -94.971596 29,000 67 475 0
2020-05-04 23:49:13 GMT 33.464729 -94.991096 29,000 67 475 0
2020-05-04 23:49:10 GMT 33.462029 -94.998947 29,000 67 475 0
2020-05-04 23:49:01 GMT 33.453918 -95.022781 29,000 67 475 0
2020-05-04 23:48:52 GMT 33.447327 -95.042122 29,000 67 475 0
2020-05-04 23:48:49 GMT 33.444992 -95.049042 29,000 67 475 0
2020-05-04 23:48:42 GMT 33.438721 -95.067444 29,000 67 475 0
2020-05-04 23:48:39 GMT 33.437027 -95.072334 29,000 67 475 0
2020-05-04 23:48:33 GMT 33.430931 -95.090317 29,000 67 475 -64
2020-05-04 23:48:30 GMT 33.428421 -95.097603 29,000 67 475 -64
2020-05-04 23:48:21 GMT 33.421947 -95.116493 29,000 67 475 -64
2020-05-04 23:48:18 GMT 33.419338 -95.124115 29,000 67 475 -64
2020-05-04 23:48:11 GMT 33.412636 -95.143616 29,000 67 475 0
2020-05-04 23:48:08 GMT 33.410110 -95.151108 29,000 67 475 0
2020-05-04 23:48:04 GMT 33.406448 -95.161819 29,000 67 475 64
2020-05-04 23:48:01 GMT 33.404846 -95.166489 29,000 67 475 0
2020-05-04 23:47:57 GMT 33.401649 -95.175903 29,000 67 475 64
2020-05-04 23:47:51 GMT 33.396667 -95.190483 29,000 67 475 64
2020-05-04 23:47:48 GMT 33.388229 -95.215103 29,000 67 475 -64
2020-05-04 23:47:41 GMT 33.388229 -95.215103 29,000 67 475 64
2020-05-04 23:47:38 GMT 33.384842 -95.224991 29,000 67 475 0
2020-05-04 23:47:31 GMT 33.378891 -95.242294 29,000 67 475 0
2020-05-04 23:47:26 GMT 33.375999 -95.250732 29,000 67 475 64
2020-05-04 23:47:19 GMT 33.369064 -95.270973 29,000 67 475 0
2020-05-04 23:47:15 GMT 33.367016 -95.276970 29,000 67 475 0
2020-05-04 23:47:10 GMT 33.362408 -95.290421 29,000 67 475 0
2020-05-04 23:47:06 GMT 33.358154 -95.302773 29,000 67 475 0
2020-05-04 23:46:59 GMT 33.353165 -95.317276 29,000 67 474 0
2020-05-04 23:46:56 GMT 33.350769 -95.324333 29,000 67 474 64
2020-05-04 23:46:50 GMT 33.344997 -95.341034 29,000 67 474 0
2020-05-04 23:46:46 GMT 33.341858 -95.350235 29,000 67 474 0
2020-05-04 23:46:43 GMT 33.338989 -95.358528 29,000 67 473 64
2020-05-04 23:46:39 GMT 33.336010 -95.367210 29,000 67 473 0
2020-05-04 23:46:36 GMT 33.334660 -95.371078 29,000 67 473 0
2020-05-04 23:46:33 GMT 33.331512 -95.380280 29,000 67 473 0
2020-05-04 23:46:30 GMT 33.328983 -95.387558 29,000 67 474 0
2020-05-04 23:46:26 GMT 33.325241 -95.398514 29,000 67 474 0
2020-05-04 23:46:23 GMT 33.322651 -95.405945 29,000 67 475 64
2020-05-04 23:46:19 GMT 33.319473 -95.415108 29,000 67 474 64
2020-05-04 23:46:15 GMT 33.315994 -95.425285 29,000 67 475 64
2020-05-04 23:46:12 GMT 33.314320 -95.430161 29,000 67 475 64
2020-05-04 23:46:07 GMT 33.310135 -95.442299 29,000 67 476 64
2020-05-04 23:46:02 GMT 33.304913 -95.457405 29,000 67 476 0
2020-05-04 23:45:58 GMT 33.302307 -95.465027 29,000 67 477 -64
2020-05-04 23:45:54 GMT 33.296356 -95.482231 29,000 67 477 -64
2020-05-04 23:45:51 GMT 33.296356 -95.482231 29,000 67 478 -64
2020-05-04 23:45:47 GMT 33.293137 -95.491539 29,025 67 478 -64
2020-05-04 23:45:44 GMT 33.290112 -95.500282 29,000 67 477 0
2020-05-04 23:45:38 GMT 33.284637 -95.516068 29,000 67 472 512
2020-05-04 23:45:31 GMT 33.280102 -95.529152 28,925 67 471 960
2020-05-04 23:45:27 GMT 33.276424 -95.539856 28,825 67 471 1664
2020-05-04 23:45:21 GMT 33.271862 -95.553085 28,725 67 471 1664
2020-05-04 23:45:16 GMT 33.265594 -95.571114 28,500 67 471 1536
2020-05-04 23:45:11 GMT 33.262299 -95.580727 28,400 67 471 1408
2020-05-04 23:45:05 GMT 33.258270 -95.592262 28,325 67 471 1152
2020-05-04 23:45:01 GMT 33.254608 -95.602806 28,225 67 470 1152
2020-05-04 23:44:55 GMT 33.249798 -95.616760 28,125 67 469 1088
2020-05-04 23:44:51 GMT 33.246166 -95.627243 28,025 67 467 1024
2020-05-04 23:44:46 GMT 33.240856 -95.642487 27,925 67 466 1152
2020-05-04 23:44:39 GMT 33.236900 -95.653923 27,825 67 465 1152
2020-05-04 23:44:34 GMT 33.231968 -95.667992 27,700 67 464 1216
2020-05-04 23:44:29 GMT 33.228661 -95.677574 27,625 67 463 1280
2020-05-04 23:44:24 GMT 33.224098 -95.690750 27,500 67 462 1344
2020-05-04 23:44:20 GMT 33.220276 -95.701630 27,400 67 461 1408
2020-05-04 23:44:14 GMT 33.215744 -95.714813 27,275 67 460 1408
2020-05-04 23:44:08 GMT 33.211533 -95.726791 27,150 67 460 1472
2020-05-04 23:44:04 GMT 33.207275 -95.738983 27,025 67 459 1536
2020-05-04 23:43:59 GMT 33.202873 -95.751625 26,875 67 459 1600
2020-05-04 23:43:53 GMT 33.199333 -95.761879 26,775 67 458 1664
2020-05-04 23:43:50 GMT 33.197006 -95.768555 26,650 67 457 1728
2020-05-04 23:43:47 GMT 33.194595 -95.775566 26,650 67 457 1728
2020-05-04 23:43:43 GMT 33.190338 -95.787704 26,450 67 457 1792
2020-05-04 23:43:38 GMT 33.186298 -95.799324 26,300 67 458 1600
2020-05-04 23:43:33 GMT 33.182236 -95.810890 26,175 67 458 1472
2020-05-04 23:43:27 GMT 33.177612 -95.824181 26,000 67 456 1472
2020-05-04 23:43:23 GMT 33.173172 -95.836929 25,900 67 455 1408
2020-05-04 23:43:16 GMT 33.169144 -95.848297 25,800 67 455 1280
2020-05-04 23:43:12 GMT 33.166142 -95.856949 25,725 67 455 1216
2020-05-04 23:43:06 GMT 33.160400 -95.873291 25,575 67 453 1280
2020-05-04 23:43:01 GMT 33.156040 -95.885757 25,500 67 451 1408
2020-05-04 23:42:55 GMT 33.151062 -95.899879 25,300 67 450 1536
2020-05-04 23:42:50 GMT 33.147335 -95.910530 25,175 67 450 1600
2020-05-04 23:42:47 GMT 33.145248 -95.916519 25,100 67 449 1600
2020-05-04 23:42:44 GMT 33.142818 -95.923370 25,025 67 449 1600
2020-05-04 23:42:41 GMT 33.139652 -95.932503 24,925 67 448 1536
2020-05-04 23:42:37 GMT 33.136917 -95.940254 24,850 67 448 1536
2020-05-04 23:42:32 GMT 33.132751 -95.952118 24,700 67 447 1408
2020-05-04 23:42:29 GMT 33.131149 -95.956680 24,675 67 445 1408
2020-05-04 23:42:26 GMT 33.128677 -95.963707 24,600 67 446 1344
2020-05-04 23:42:23 GMT 33.126343 -95.970299 24,550 67 445 1408
2020-05-04 23:42:19 GMT 33.122429 -95.981384 24,400 67 444 1344
2020-05-04 23:42:16 GMT 33.120522 -95.986877 24,400 67 444 1344
2020-05-04 23:42:13 GMT 33.118103 -95.993698 24,250 67 443 1472
2020-05-04 23:42:10 GMT 33.115906 -96.000015 24,225 67 442 1536
2020-05-04 23:42:06 GMT 33.112152 -96.010727 24,100 67 441 1600
2020-05-04 23:42:03 GMT 33.110184 -96.016220 24,000 67 441 1600
2020-05-04 23:42:00 GMT 33.107666 -96.023422 23,950 67 440 1600
2020-05-04 23:41:55 GMT 33.103912 -96.034073 23,825 67 439 1664
2020-05-04 23:41:52 GMT 33.101852 -96.039902 23,775 67 437 1600
2020-05-04 23:41:49 GMT 33.099518 -96.046547 23,675 67 437 1536
2020-05-04 23:41:44 GMT 33.095894 -96.056770 23,600 67 437 1472
2020-05-04 23:41:39 GMT 33.090912 -96.071014 23,425 67 433 1536
2020-05-04 23:41:35 GMT 33.088577 -96.077583 23,375 67 433 1536
2020-05-04 23:41:32 GMT 33.085464 -96.086372 23,225 67 432 1728
2020-05-04 23:41:28 GMT 33.083313 -96.092522 23,150 67 432 1728
2020-05-04 23:41:25 GMT 33.080952 -96.099091 23,050 67 431 1664
2020-05-04 23:41:21 GMT 33.077454 -96.109055 22,800 67 429 0
2020-05-04 23:41:18 GMT 33.075623 -96.114273 22,800 67 429 1664
2020-05-04 23:41:14 GMT 33.071453 -96.126053 22,750 67 428 1728
2020-05-04 23:41:11 GMT 33.069874 -96.130539 22,500 67 425 1920
2020-05-04 23:41:07 GMT 33.066696 -96.139542 22,575 67 427 1856
2020-05-04 23:41:04 GMT 33.064819 -96.144875 22,450 67 427 1920
2020-05-04 23:41:01 GMT 33.061752 -96.153496 22,300 67 426 1920
2020-05-04 23:40:57 GMT 33.058685 -96.162178 22,200 67 426 1920
2020-05-04 23:40:51 GMT 33.054749 -96.173325 21,950 67 425 1984
2020-05-04 23:40:48 GMT 33.051727 -96.181900 21,900 67 424 1984
2020-05-04 23:40:43 GMT 33.047852 -96.192757 21,775 67 424 2048
2020-05-04 23:40:39 GMT 33.045712 -96.198814 21,625 67 424 2176
2020-05-04 23:40:36 GMT 33.042847 -96.206947 21,550 67 424 2240
2020-05-04 23:40:32 GMT 33.040100 -96.214691 21,375 67 424 2176
2020-05-04 23:40:29 GMT 33.037674 -96.221611 21,250 67 424 2176
2020-05-04 23:40:25 GMT 33.034607 -96.230240 21,100 67 423 2112
2020-05-04 23:40:21 GMT 33.031586 -96.238808 20,975 67 423 2112
2020-05-04 23:40:17 GMT 33.028290 -96.248093 20,825 67 422 2112
2020-05-04 23:40:12 GMT 33.024353 -96.259186 20,650 67 421 2048
2020-05-04 23:40:08 GMT 33.022064 -96.265793 20,525 67 421 1984
2020-05-04 23:40:04 GMT 33.018906 -96.274788 20,400 67 421 1856
2020-05-04 23:40:01 GMT 33.016663 -96.281212 19,750 67 419 1792
2020-05-04 23:39:58 GMT 33.014465 -96.287643 20,225 67 418 1792
2020-05-04 23:39:54 GMT 33.011124 -96.297409 20,075 68 417 2048
2020-05-04 23:39:51 GMT 33.009075 -96.303406 19,975 68 416 2112
2020-05-04 23:39:48 GMT 33.006840 -96.310020 19,875 67 416 2048
2020-05-04 23:39:45 GMT 33.005219 -96.314667 19,800 67 414 2048
2020-05-04 23:39:40 GMT 33.001419 -96.324883 19,625 64 413 1920
2020-05-04 23:39:36 GMT 32.998398 -96.332245 19,525 64 412 1856
2020-05-04 23:39:33 GMT 32.994736 -96.341202 19,375 64 411 1984
2020-05-04 23:39:29 GMT 32.991291 -96.349709 19,250 64 410 2048
2020-05-04 23:39:25 GMT 32.988464 -96.356636 19,125 64 408 2048
2020-05-04 23:39:20 GMT 32.983521 -96.368721 19,025 64 406 2112
2020-05-04 23:39:17 GMT 32.982353 -96.371513 18,850 64 405 2176
2020-05-04 23:39:14 GMT 32.979748 -96.377953 18,750 64 405 2176
2020-05-04 23:39:10 GMT 32.976288 -96.386353 18,575 64 404 2176
2020-05-04 23:39:07 GMT 32.973312 -96.393600 18,475 64 402 2176
2020-05-04 23:39:02 GMT 32.969551 -96.402786 18,375 64 402 2176
2020-05-04 23:38:59 GMT 32.967968 -96.406654 18,250 64 401 2240
2020-05-04 23:38:56 GMT 32.964844 -96.414314 18,100 64 400 2432
2020-05-04 23:38:53 GMT 32.962708 -96.419495 18,000 64 400 2496
2020-05-04 23:38:50 GMT 32.959778 -96.426720 17,750 64 400 2560
2020-05-04 23:38:47 GMT 32.957016 -96.433426 17,650 64 400 2432
2020-05-04 23:38:43 GMT 32.953812 -96.441231 17,550 64 399 2368
2020-05-04 23:38:39 GMT 32.951302 -96.447350 17,450 64 398 2240
2020-05-04 23:38:36 GMT 32.948318 -96.454689 17,275 64 398 2240
2020-05-04 23:38:31 GMT 32.944702 -96.463478 17,150 64 397 2368
2020-05-04 23:38:28 GMT 32.941994 -96.470047 16,975 64 395 2432
2020-05-04 23:38:25 GMT 32.940037 -96.474815 16,875 64 395 2496
2020-05-04 23:38:21 GMT 32.936050 -96.484627 16,650 64 394 2624
2020-05-04 23:38:18 GMT 32.934128 -96.489296 16,550 64 394 2688
2020-05-04 23:38:15 GMT 32.931610 -96.495392 16,425 64 394 2688
2020-05-04 23:38:11 GMT 32.927933 -96.504356 16,225 63 394 2624
2020-05-04 23:38:08 GMT 32.926437 -96.508026 16,125 64 393 2496
2020-05-04 23:38:05 GMT 32.923698 -96.514610 16,000 64 393 2496
2020-05-04 23:38:02 GMT 32.920856 -96.521561 15,850 64 392 2496
2020-05-04 23:37:58 GMT 32.917645 -96.529350 15,650 63 391 2432
2020-05-04 23:37:55 GMT 32.915268 -96.535164 15,550 63 391 2432
2020-05-04 23:37:50 GMT 32.911102 -96.545212 15,350 64 390 2304
2020-05-04 23:37:46 GMT 32.908756 -96.550987 15,250 63 389 2304
2020-05-04 23:37:43 GMT 32.906982 -96.555214 15,150 63 389 2304
2020-05-04 23:37:40 GMT 32.904610 -96.560966 14,950 63 387 2432
2020-05-04 23:37:37 GMT 32.900986 -96.569824 14,850 63 387 2368
2020-05-04 23:37:34 GMT 32.899109 -96.574387 14,575 63 385 2432
2020-05-04 23:37:31 GMT 32.896420 -96.580864 14,625 63 385 2432
2020-05-04 23:37:26 GMT 32.892323 -96.590729 14,400 63 384 2496
2020-05-04 23:37:23 GMT 32.891064 -96.593758 14,225 63 384 2368
2020-05-04 23:37:19 GMT 32.886967 -96.603622 14,150 63 382 2560
2020-05-04 23:37:16 GMT 32.884827 -96.608780 13,950 64 382 2496
2020-05-04 23:37:13 GMT 32.882126 -96.615364 13,875 64 381 2368
2020-05-04 23:37:10 GMT 32.879799 -96.621002 13,775 64 381 2368
2020-05-04 23:37:05 GMT 32.875626 -96.631241 13,525 64 379 2624
2020-05-04 23:37:01 GMT 32.873795 -96.635796 13,425 64 378 2688
2020-05-04 23:36:58 GMT 32.870682 -96.643379 13,250 64 377 2752
2020-05-04 23:36:54 GMT 32.868210 -96.649368 13,150 63 378 2688
2020-05-04 23:36:51 GMT 32.865322 -96.656425 12,950 63 377 2496
2020-05-04 23:36:46 GMT 32.862576 -96.663094 12,800 63 375 2560
2020-05-04 23:36:43 GMT 32.859131 -96.671333 12,600 63 375 2624
2020-05-04 23:36:39 GMT 32.856106 -96.678680 12,450 63 373 2496
2020-05-04 23:36:35 GMT 32.853790 -96.684303 12,250 63 373 2560
2020-05-04 23:36:32 GMT 32.851543 -96.689720 12,250 63 373 2560
2020-05-04 23:36:28 GMT 32.848297 -96.697540 12,025 63 372 2176
2020-05-04 23:36:24 GMT 32.844360 -96.707047 11,850 63 370 2048
2020-05-04 23:36:21 GMT 32.843491 -96.709129 11,825 63 369 2048
2020-05-04 23:36:18 GMT 32.840553 -96.716125 11,650 63 367 1920
2020-05-04 23:36:15 GMT 32.837856 -96.722626 11,475 63 364 2048
2020-05-04 23:36:12 GMT 32.832642 -96.735222 11,400 63 363 1984
2020-05-04 23:36:07 GMT 32.832642 -96.735222 11,325 64 362 1856
2020-05-04 23:36:03 GMT 32.826122 -96.751099 11,200 64 357 1216
2020-05-04 23:35:59 GMT 32.826122 -96.751099 11,150 64 353 960
2020-05-04 23:35:56 GMT 32.825043 -96.753677 11,125 64 351 1024
2020-05-04 23:35:51 GMT 32.820831 -96.763954 11,025 64 344 1088
2020-05-04 23:35:47 GMT 32.815651 -96.776657 10,925 64 337 1280
2020-05-04 23:35:43 GMT 32.815651 -96.776657 10,450 64 333 1856
2020-05-04 23:35:40 GMT 32.813694 -96.781364 10,750 63 332 1984
2020-05-04 23:35:36 GMT 32.810760 -96.788544 10,575 63 329 2752
2020-05-04 23:35:31 GMT 32.806870 -96.797958 10,300 64 327 2944
2020-05-04 23:35:25 GMT 32.805439 -96.808861 8,600 60 325 2720
2020-05-04 23:35:22 GMT 32.803200 -96.813522 8,600 60 325 2720
2020-05-04 23:35:19 GMT 32.800968 -96.818169 8,600 60 325 2720
2020-05-04 23:35:16 GMT 32.798740 -96.822830 8,600 60 325 2720
2020-05-04 23:35:13 GMT 32.796509 -96.827492 8,600 60 325 2720
2020-05-04 23:35:10 GMT 32.794270 -96.832153 8,600 60 325 2720
2020-05-04 23:35:07 GMT 32.792042 -96.836807 8,600 60 325 2720
2020-05-04 23:35:04 GMT 32.789810 -96.841469 8,600 60 325 3712
2020-05-04 23:35:01 GMT 32.787571 -96.846123 8,600 60 325 3712
2020-05-04 23:34:58 GMT 32.785339 -96.850777 8,600 60 325 3712
2020-05-04 23:34:55 GMT 32.783352 -96.855339 8,400 62 327 3712
2020-05-04 23:34:52 GMT 32.781139 -96.860039 8,400 62 327 3712
2020-05-04 23:34:49 GMT 32.778919 -96.864548 8,000 65 327 3712
2020-05-04 23:34:46 GMT 32.776501 -96.869209 8,000 65 327 3712
2020-05-04 23:34:43 GMT 32.774799 -96.874130 8,000 69 323 3712
2020-05-04 23:34:40 GMT 32.772701 -96.879028 7,900 73 317 3712
2020-05-04 23:34:37 GMT 32.771339 -96.884003 7,900 73 317 3712
2020-05-04 23:34:34 GMT 32.769779 -96.889099 7,700 77 308 3712
2020-05-04 23:34:31 GMT 32.768410 -96.894203 7,500 82 301 3712
2020-05-04 23:34:28 GMT 32.767689 -96.899078 7,500 82 301 3712
2020-05-04 23:34:25 GMT 32.766720 -96.904060 7,200 86 297 3712
2020-05-04 23:34:22 GMT 32.765739 -96.908989 7,200 91 297 3712
2020-05-04 23:34:19 GMT 32.765751 -96.913879 7,200 91 297 3712
2020-05-04 23:34:16 GMT 32.765442 -96.918854 6,900 95 297 3712
2020-05-04 23:34:13 GMT 32.765530 -96.923920 6,900 97 294 3712
2020-05-04 23:34:10 GMT 32.766010 -96.928719 6,900 97 294 3712
2020-05-04 23:34:07 GMT 32.766548 -96.933517 6,700 98 294 3712
2020-05-04 23:34:04 GMT 32.766850 -96.937782 6,500 100 307 832
2020-05-04 23:34:01 GMT 32.767632 -96.942741 6,500 100 307 832
2020-05-04 23:33:58 GMT 32.768589 -96.947411 6,200 101 308 832
2020-05-04 23:33:55 GMT 32.769508 -96.952133 5,800 103 307 832
2020-05-04 23:33:52 GMT 32.770439 -96.957062 5,800 103 307 832
2020-05-04 23:33:49 GMT 32.771530 -96.961838 5,800 105 299 832
2020-05-04 23:33:46 GMT 32.772018 -96.966759 5,600 113 294 832
2020-05-04 23:33:43 GMT 32.773579 -96.971230 5,600 113 294 832
2020-05-04 23:33:40 GMT 32.774601 -96.976173 5,500 123 283 832
2020-05-04 23:33:37 GMT 32.776711 -96.980537 5,400 126 273 832
2020-05-04 23:33:34 GMT 32.778500 -96.984459 5,300 133 273 832
2020-05-04 23:33:31 GMT 32.780369 -96.988762 5,100 144 269 832
2020-05-04 23:33:28 GMT 32.783272 -96.992043 5,100 144 269 832
2020-05-04 23:33:25 GMT 32.785938 -96.994797 4,900 152 265 832
2020-05-04 23:33:22 GMT 32.789230 -96.998016 4,800 158 248 832
2020-05-04 23:33:19 GMT 32.792439 -96.999512 4,800 158 248 832
2020-05-04 23:33:16 GMT 32.795811 -97.001320 4,700 159 239 832
2020-05-04 23:33:13 GMT 32.798729 -97.002663 4,600 159 247 832
2020-05-04 23:33:10 GMT 32.801949 -97.004059 4,600 159 247 832
2020-05-04 23:33:07 GMT 32.805229 -97.005531 4,500 160 233 0
2020-05-04 23:33:04 GMT 32.808472 -97.007019 4,500 160 227 0
2020-05-04 23:33:01 GMT 32.811340 -97.008217 4,500 160 219 224
2020-05-04 23:32:58 GMT 32.814388 -97.009491 4,400 159 203 224
2020-05-04 23:32:55 GMT 32.817360 -97.010681 4,300 159 194 224
2020-05-04 23:32:52 GMT 32.819889 -97.011810 4,300 159 194 224
2020-05-04 23:32:49 GMT 32.822609 -97.012894 4,100 157 187 224
2020-05-04 23:32:46 GMT 32.824699 -97.013939 4,100 157 187 224
2020-05-04 23:32:43 GMT 32.827499 -97.015221 3,900 157 189 224
2020-05-04 23:32:40 GMT 32.829960 -97.016296 3,800 156 195 224
2020-05-04 23:32:37 GMT 32.832432 -97.017570 3,700 156 196 224
2020-05-04 23:32:34 GMT 32.834942 -97.018921 3,500 158 210 224
2020-05-04 23:32:31 GMT 32.837502 -97.020111 3,300 157 205 224
2020-05-04 23:32:28 GMT 32.840118 -97.021370 3,300 157 195 224
2020-05-04 23:32:25 GMT 32.842709 -97.022629 3,100 157 203 224
2020-05-04 23:32:22 GMT 32.845249 -97.023872 2,900 158 203 224
2020-05-04 23:32:19 GMT 32.847881 -97.025093 2,850 158 202 224
2020-05-04 23:32:16 GMT 32.850498 -97.026268 2,775 158 202 224
2020-05-04 23:32:13 GMT 32.853031 -97.027359 2,675 161 201 224
2020-05-04 23:32:10 GMT 32.855621 -97.028374 2,625 164 195 224
2020-05-04 23:32:07 GMT 32.858261 -97.029129 2,500 170 189 224
2020-05-04 23:32:04 GMT 32.860821 -97.029617 2,450 177 181 224
2020-05-04 23:32:01 GMT 32.863312 -97.029892 2,450 178 178 1024
2020-05-04 23:31:58 GMT 32.865799 -97.029938 2,425 178 175 1024
2020-05-04 23:31:55 GMT 32.868092 -97.030022 2,400 179 164 1024
2020-05-04 23:31:52 GMT 32.870350 -97.030060 2,375 179 156 1024
2020-05-04 23:31:49 GMT 32.872551 -97.030067 2,300 180 149 1024
2020-05-04 23:31:46 GMT 32.874599 -97.030052 2,250 180 145 1024
2020-05-04 23:31:43 GMT 32.876591 -97.029968 2,175 180 142 1024
2020-05-04 23:31:40 GMT 32.878578 -97.029961 2,175 180 136 1024
2020-05-04 23:31:37 GMT 32.880421 -97.029953 2,075 181 132 1024
2020-05-04 23:31:34 GMT 32.882229 -97.029892 2,050 180 132 1024
2020-05-04 23:31:31 GMT 32.884029 -97.029892 1,900 179 117 1024
2020-05-04 23:31:28 GMT 32.885719 -97.029892 1,725 179 120 1024
2020-05-04 23:31:25 GMT 32.887409 -97.029907 1,700 179 124 1024
2020-05-04 23:31:22 GMT 32.889149 -97.029930 1,625 178 118 1024
2020-05-04 23:31:19 GMT 32.890862 -97.029953 1,475 179 124 1024
2020-05-04 23:31:16 GMT 32.892590 -97.029938 1,400 180 125 1024
2020-05-04 23:31:13 GMT 32.894360 -97.029961 1,200 180 128 1024
2020-05-04 23:31:10 GMT 32.896130 -97.029938 975 178 136 1024
2020-05-04 23:31:07 GMT 32.897961 -97.029991 900 180 138 1024
2020-05-04 23:31:04 GMT 32.899841 -97.029938 800 180 141 1024
2020-05-04 23:31:01 GMT 32.901772 -97.029907 775 179 137 -608
2020-05-04 23:30:58 GMT 32.903648 -97.029938 775 180 130 -608
2020-05-04 23:30:55 GMT 32.905392 -97.029930 775 180 118 -32
2020-05-04 23:30:52 GMT 32.906979 -97.029961 800 180 106 -32
2020-05-04 23:30:49 GMT 32.908470 -97.029922 800 180 97 128
2020-05-04 23:30:46 GMT 32.909771 -97.029900 800 179 90 128
2020-05-04 23:30:43 GMT 32.910919 -97.029892 775 179 75 -32
2020-05-04 23:30:40 GMT 32.911911 -97.029900 800 180 67 -32
2020-05-04 23:30:37 GMT 32.912750 -97.029877 800 181 58 0
2020-05-04 23:30:34 GMT 32.913399 -97.029877 0 179 22 0
2020-05-04 23:30:31 GMT 32.913811 -97.029877 0 177 16 0
2020-05-04 23:30:28 GMT 32.914040 -97.029900 0 181 12 0
2020-05-04 23:30:25 GMT 32.914230 -97.029892 0 179 11 0
2020-05-04 23:30:22 GMT 32.914391 -97.029930 0 192 11 0
2020-05-04 23:30:19 GMT 32.914539 -97.029861 0 167 11 0
2020-05-04 23:30:16 GMT 32.914688 -97.029877 0 117 11 0
2020-05-04 23:30:13 GMT 32.914791 -97.029968 0 106 12 0
2020-05-04 23:30:10 GMT 32.914860 -97.030167 0 88 12 0
2020-05-04 23:30:07 GMT 32.914860 -97.030342 0 88 12 0
2020-05-04 23:30:04 GMT 32.914841 -97.030563 0 87 12 0
2020-05-04 23:30:01 GMT 32.914848 -97.030724 0 89 10 64
2020-05-04 23:29:58 GMT 32.914848 -97.030891 0 94 6 64
2020-05-04 23:29:55 GMT 32.914829 -97.031021 0 90 6 64
2020-05-04 23:29:52 GMT 32.914841 -97.031151 0 89 6 64
2020-05-04 23:29:49 GMT 32.914848 -97.031242 0 90 1 0
2020-05-04 23:29:46 GMT 32.914841 -97.031288 0 90 0 0
2020-05-04 23:29:43 GMT 32.914841 -97.031303 0 90 0 0
2020-05-04 23:29:30 GMT 32.914848 -97.031288 0 89 0 0
2020-05-04 23:29:27 GMT 32.914848 -97.031303 0 89 0 0
2020-05-04 23:29:22 GMT 32.914848 -97.031288 0 89 0 0
2020-05-04 23:29:16 GMT 32.914841 -97.031303 0 89 0 0
2020-05-04 23:29:13 GMT 32.914860 -97.031281 0 87 2 0
2020-05-04 23:29:10 GMT 32.914848 -97.031303 0 85 4 0
2020-05-04 23:29:07 GMT 32.914841 -97.031357 0 96 7 0
2020-05-04 23:29:04 GMT 32.914848 -97.031487 0 89 8 0
2020-05-04 23:29:01 GMT 32.914879 -97.031761 0 81 9 0
2020-05-04 23:28:58 GMT 32.914879 -97.031761 0 79 9 0
2020-05-04 23:28:55 GMT 32.914829 -97.031898 0 92 10 0
2020-05-04 23:28:52 GMT 32.914860 -97.032227 0 87 9 0
2020-05-04 23:28:49 GMT 32.914860 -97.032227 0 65 8 0
2020-05-04 23:28:46 GMT 32.914829 -97.032356 0 60 10 0
2020-05-04 23:28:43 GMT 32.914700 -97.032608 0 20 11 0
2020-05-04 23:28:40 GMT 32.914700 -97.032608 0 8 9 0
2020-05-04 23:28:37 GMT 32.914532 -97.032692 0 8 9 0
2020-05-04 23:28:34 GMT 32.914410 -97.032707 0 3 11 0
2020-05-04 23:28:31 GMT 32.914242 -97.032730 0 355 12 0
2020-05-04 23:28:28 GMT 32.914089 -97.032700 0 359 11 0
2020-05-04 23:28:25 GMT 32.913910 -97.032707 0 3 14 0
2020-05-04 23:28:22 GMT 32.913681 -97.032707 0 4 15 0
2020-05-04 23:28:19 GMT 32.913502 -97.032730 0 0 16 0
2020-05-04 23:28:16 GMT 32.913280 -97.032722 0 3 16 0
2020-05-04 23:28:13 GMT 32.913029 -97.032738 0 356 16 0
2020-05-04 23:28:10 GMT 32.912800 -97.032730 0 358 14 0
2020-05-04 23:28:07 GMT 32.912621 -97.032700 0 2 19 0
2020-05-04 23:28:04 GMT 32.912361 -97.032707 0 3 19 0
2020-05-04 23:28:01 GMT 32.912109 -97.032730 0 0 18 0
2020-05-04 23:27:58 GMT 32.911861 -97.032738 0 355 18 0
2020-05-04 23:27:55 GMT 32.911621 -97.032707 0 3 19 0
2020-05-04 23:27:52 GMT 32.911362 -97.032700 0 356 19 0
2020-05-04 23:27:49 GMT 32.911110 -97.032722 0 0 19 0
2020-05-04 23:27:46 GMT 32.910839 -97.032738 0 352 19 0
2020-05-04 23:27:43 GMT 32.910622 -97.032700 0 13 18 0
2020-05-04 23:27:40 GMT 32.910381 -97.032753 0 47 14 0
2020-05-04 23:27:37 GMT 32.910210 -97.032898 0 64 15 0
2020-05-04 23:27:34 GMT 32.910091 -97.033142 0 74 15 0
2020-05-04 23:27:31 GMT 32.910069 -97.033363 0 87 16 0
2020-05-04 23:27:28 GMT 32.910061 -97.033623 0 92 15 0
2020-05-04 23:27:25 GMT 32.910069 -97.033913 0 96 16 0
2020-05-04 23:27:22 GMT 32.910080 -97.034172 0 88 19 0
2020-05-04 23:27:19 GMT 32.910061 -97.034477 0 93 17 0
2020-05-04 23:27:16 GMT 32.910069 -97.034737 0 90 17 0
2020-05-04 23:27:13 GMT 32.910069 -97.035027 0 92 19 0
2020-05-04 23:27:10 GMT 32.910069 -97.035347 0 88 18 0
2020-05-04 23:27:07 GMT 32.910080 -97.035622 0 91 18 0
2020-05-04 23:27:04 GMT 32.910061 -97.035957 0 88 20 0
2020-05-04 23:27:01 GMT 32.910091 -97.036263 0 86 20 0
2020-05-04 23:26:58 GMT 32.910061 -97.036591 0 95 21 0
2020-05-04 23:26:55 GMT 32.910091 -97.036919 0 89 20 0
2020-05-04 23:26:52 GMT 32.910080 -97.037239 0 84 18 0
2020-05-04 23:26:49 GMT 32.910080 -97.037552 0 90 21 0
2020-05-04 23:26:46 GMT 32.910080 -97.037903 0 87 19 0
2020-05-04 23:26:43 GMT 32.910080 -97.038254 0 87 17 0
2020-05-04 23:26:40 GMT 32.910091 -97.038879 0 94 20 0
2020-05-04 23:26:37 GMT 32.910091 -97.038879 0 89 19 0
2020-05-04 23:26:34 GMT 32.910069 -97.039200 0 85 18 0
2020-05-04 23:26:31 GMT 32.910080 -97.039490 0 90 23 -96
2020-05-04 23:26:28 GMT 32.910099 -97.039833 0 91 23 -96
2020-05-04 23:26:25 GMT 32.910091 -97.040207 0 88 21 -96
2020-05-04 23:26:22 GMT 32.910091 -97.040558 0 88 19 -96
2020-05-04 23:26:19 GMT 32.910069 -97.040863 0 94 18 -96
2020-05-04 23:26:16 GMT 32.910091 -97.041183 0 86 19 -96
2020-05-04 23:26:13 GMT 32.910080 -97.041481 0 92 19 -96
2020-05-04 23:26:10 GMT 32.910080 -97.041817 0 88 21 -96
2020-05-04 23:26:07 GMT 32.910091 -97.042091 0 90 18 -96
2020-05-04 23:26:04 GMT 32.910099 -97.042397 0 91 19 -96
2020-05-04 23:26:01 GMT 32.910099 -97.042717 0 89 19 32
2020-05-04 23:25:58 GMT 32.910099 -97.042999 0 83 20 -32
2020-05-04 23:25:55 GMT 32.910069 -97.043381 0 91 18 -32
2020-05-04 23:25:52 GMT 32.910080 -97.043663 0 96 21 -32
2020-05-04 23:25:49 GMT 32.910091 -97.044022 0 93 21 -32
2020-05-04 23:25:46 GMT 32.910118 -97.044373 0 89 20 -32
2020-05-04 23:25:43 GMT 32.910080 -97.044701 0 92 20 0
2020-05-04 23:25:40 GMT 32.910099 -97.045029 0 93 21 0
2020-05-04 23:25:37 GMT 32.910110 -97.045410 0 90 21 0
2020-05-04 23:25:34 GMT 32.910099 -97.045769 0 90 22 0
2020-05-04 23:25:31 GMT 32.910110 -97.046143 0 91 19 0
2020-05-04 23:25:28 GMT 32.910130 -97.046448 0 89 21 0
2020-05-04 23:25:25 GMT 32.910099 -97.047112 0 90 17 0
2020-05-04 23:25:22 GMT 32.910099 -97.047112 0 95 17 0
2020-05-04 23:25:19 GMT 32.910118 -97.047394 0 91 18 0
2020-05-04 23:25:16 GMT 32.910141 -97.047974 0 104 19 0
2020-05-04 23:25:13 GMT 32.910141 -97.047974 0 90 17 0
2020-05-04 23:25:10 GMT 32.910141 -97.048210 0 87 17
2020-05-04 23:25:07 GMT 32.910110 -97.048500 0 49 14
2020-05-04 23:25:04 GMT 32.909962 -97.048683 0 20 15
2020-05-04 23:25:01 GMT 32.909840 -97.048828 0 357 15
2020-05-04 23:24:58 GMT 32.909409 -97.048820 0 359 17
2020-05-04 23:24:55 GMT 32.909409 -97.048820 0 0 18
2020-05-04 23:24:52 GMT 32.909149 -97.048813 0 2 19
2020-05-04 23:24:49 GMT 32.908840 -97.048798 0 2 13
2020-05-04 23:24:46 GMT 32.908691 -97.048851 0 1 17
2020-05-04 23:24:43 GMT 32.908451 -97.048843 0 1 19
2020-05-04 23:24:40 GMT 32.908180 -97.048851 0 356 18
2020-05-04 23:24:37 GMT 32.907959 -97.048820 0 1 17
2020-05-04 23:24:34 GMT 32.907688 -97.048820 0 6 17
2020-05-04 23:24:31 GMT 32.907471 -97.048866 0 352 13
2020-05-04 23:24:28 GMT 32.907261 -97.048820 0 4 13
2020-05-04 23:24:25 GMT 32.907101 -97.048820 0 3 15
2020-05-04 23:24:22 GMT 32.906879 -97.048828 0 357 11
2020-05-04 23:24:19 GMT 32.906712 -97.048843 0 357 10
2020-05-04 23:24:16 GMT 32.906590 -97.048828 0 10 9
2020-05-04 23:24:13 GMT 32.906429 -97.048859 0 338 9
2020-05-04 23:24:10 GMT 32.906311 -97.048820 0 327 9
2020-05-04 23:24:07 GMT 32.906139 -97.048637 0 290 8
2020-05-04 23:24:04 GMT 32.906139 -97.048637 0 272 6
2020-05-04 23:24:01 GMT 32.906101 -97.048523 0 273 8
2020-05-04 23:23:58 GMT 32.906101 -97.048393 0 271 8
2020-05-04 23:23:55 GMT 32.906078 -97.048279 0 260 7
2020-05-04 23:23:52 GMT 32.906101 -97.048157 0 275 9
2020-05-04 23:23:49 GMT 32.906120 -97.048027 0 281 8
2020-05-04 23:23:46 GMT 32.906101 -97.047958 0 301 12
2020-05-04 23:23:43 GMT 32.906029 -97.047813 0 319 9
2020-05-04 23:23:40 GMT 32.905960 -97.047630 0 3 6
2020-05-04 23:23:37 GMT 32.905869 -97.047638 0 357 9
2020-05-04 23:23:34 GMT 32.905739 -97.047623 0 3 10
2020-05-04 23:23:31 GMT 32.905621 -97.047638 0 357 10
2020-05-04 23:23:28 GMT 32.905499 -97.047630 0 357 9
2020-05-04 23:23:25 GMT 32.905331 -97.047630 0 358 11
2020-05-04 23:23:22 GMT 32.905209 -97.047607 0 2 10
2020-05-04 23:23:19 GMT 32.905071 -97.047638 0 356 10
2020-05-04 23:23:16 GMT 32.904930 -97.047638 0 0 7
2020-05-04 23:23:13 GMT 32.904659 -97.047630 0 324 8
2020-05-04 23:23:10 GMT 32.904659 -97.047630 0 311 8
2020-05-04 23:23:07 GMT 32.904560 -97.047562 0 295 7
2020-05-04 23:23:04 GMT 32.904499 -97.047478 0 280 8
2020-05-04 23:23:01 GMT 32.904461 -97.047310 0 279 6
2020-05-04 23:22:58 GMT 32.904411 -97.047203 0 279 7
2020-05-04 23:22:55 GMT 32.904430 -97.047089 0 279 3
2020-05-04 23:22:52 GMT 32.904430 -97.047043 0 274 2
2020-05-04 23:22:49 GMT 32.904411 -97.046959 0 274 2
2020-05-04 23:22:44 GMT 32.904411 -97.046860 0 274 0
2020-05-04 23:22:40 GMT 32.904411 -97.046860 0 274 0
2020-05-04 23:22:37 GMT 32.904411 -97.046837 0 274 1
2020-05-04 23:22:34 GMT 32.904411 -97.046837 0 274 2
2020-05-04 23:22:31 GMT 32.904419 -97.046829 0 274 0
2020-05-04 23:22:28 GMT 32.904419 -97.046806 0 274 2
2020-05-04 23:22:24 GMT 32.904419 -97.046822 0 274 1
2020-05-04 23:22:21 GMT 32.904419 -97.046837 0 272 0
2020-05-04 23:22:18 GMT 32.904419 -97.046852 0 272 0
2020-05-04 23:22:15 GMT 32.904430 -97.046837 0 272 1
2020-05-04 23:22:12 GMT 32.904381 -97.046860 0 274 2
2020-05-04 23:22:09 GMT 32.904411 -97.046860 0 282 3
2020-05-04 23:22:06 GMT 32.904442 -97.046837 0 282 3
2020-05-04 23:22:03 GMT 32.904419 -97.046768 0 277 4
2020-05-04 23:22:00 GMT 32.904419 -97.046692 0 276 3
2020-05-04 23:21:57 GMT 32.904411 -97.046608 0 284 6
2020-05-04 23:21:54 GMT 32.904411 -97.046547 0 294 5
2020-05-04 23:21:51 GMT 32.904430 -97.046593 0 296 17
2020-05-04 23:20:48 GMT 32.904270 -97.046402 0 354 0
2020-05-04 23:20:45 GMT 32.904259 -97.046417 0 354 0
2020-05-04 23:20:42 GMT 32.904259 -97.046432 0 354 0
2020-05-04 23:20:39 GMT 32.904270 -97.046440 0 354 0
2020-05-04 23:20:36 GMT 32.904289 -97.046440 0 355 1
2020-05-04 23:20:33 GMT 32.904282 -97.046417 0 355 1
2020-05-04 23:20:30 GMT 32.904259 -97.046410 0 355 1
2020-05-04 23:19:28 GMT 32.904270 -97.046402 0 25 0
2020-05-04 23:19:25 GMT 32.904259 -97.046402 0 25 0
2020-05-04 23:19:22 GMT 32.904270 -97.046402 0 25 0
2020-05-04 23:19:19 GMT 32.904270 -97.046432 0 25 0
2020-05-04 23:19:16 GMT 32.904259 -97.046410 0 25 0
2020-05-04 23:19:13 GMT 32.904251 -97.046387 0 25 0
2020-05-04 23:19:10 GMT 32.904251 -97.046387 0 24 1
2020-05-04 23:19:07 GMT 32.904289 -97.046410 0 25 1
2020-05-04 23:19:04 GMT 32.904301 -97.046379 0 28 1
2020-05-04 23:19:01 GMT 32.904282 -97.046379 0 30 1
2020-05-04 23:18:58 GMT 32.904308 -97.046379 0 31 3

Making use of Plane Finder data

You are free to use the raw flight data, aircraft information and images provided in this report for your own purposes provided the data is correctly attributed to Plane Finder. We ask that you please credit Plane Finder and link to planefinder.net in close proximity to the content.

Optionally one of the following logos (no smaller then 150x24px) can be used and must link to planefinder.net

Embedding the Plane Finder map

You are welcome to embed the Plane Finder playback map on your website to offer visitors a more interactive experience. We suggest using the following HTML code:

<iframe src="//planefinder.net/data/report/AA3413-N230NN-7700-squawk-2020-05-05/map" width="800" height="600" seamless="seamless"></iframe>

Where our data comes from

Plane Finder has a global network of data feeds and antenna radars that receive data broadcast directly from aircraft. The primary technologies used are ADS-B and MLAT. We also show feeds from the FAA and a FLARM glider feed.

Click here to find out more about the Plane Finder network.

How we collect our data